<?xml version='1.0' encoding='UTF-8'?><gpx version="1.1" creator="JPX - https://github.com/jenetics/jpx" xmlns="http://www.topografix.com/GPX/1/1"><trk><trkseg><trkpt lat="44.9929367" lon="10.679815"><ele>22.0</ele><time>2026-04-04T12:59:00.405Z</time></trkpt><trkpt lat="44.993" lon="10.6796633"><ele>22.0</ele><time>2026-04-04T12:59:01.404Z</time></trkpt><trkpt lat="44.9931117" lon="10.6795017"><ele>22.0</ele><time>2026-04-04T12:59:02.905Z</time></trkpt><trkpt lat="44.9932217" lon="10.6793667"><ele>22.0</ele><time>2026-04-04T12:59:04.405Z</time></trkpt><trkpt lat="44.99329" lon="10.6792883"><ele>22.0</ele><time>2026-04-04T12:59:05.404Z</time></trkpt><trkpt lat="44.9933483" lon="10.679225"><ele>22.0</ele><time>2026-04-04T12:59:06.405Z</time></trkpt><trkpt lat="44.993425" lon="10.6791633"><ele>22.0</ele><time>2026-04-04T12:59:08.406Z</time></trkpt><trkpt lat="44.9934767" lon="10.67927"><ele>22.0</ele><time>2026-04-04T12:59:11.404Z</time></trkpt><trkpt lat="44.993475" lon="10.6794233"><ele>22.0</ele><time>2026-04-04T12:59:13.405Z</time></trkpt><trkpt lat="44.993475" lon="10.6795217"><ele>22.0</ele><time>2026-04-04T12:59:14.405Z</time></trkpt><trkpt lat="44.993475" lon="10.679625"><ele>22.0</ele><time>2026-04-04T12:59:15.405Z</time></trkpt><trkpt lat="44.9934867" lon="10.6797283"><ele>22.0</ele><time>2026-04-04T12:59:16.406Z</time></trkpt><trkpt lat="44.9935017" lon="10.6798233"><ele>22.0</ele><time>2026-04-04T12:59:17.404Z</time></trkpt><trkpt lat="44.9935233" lon="10.6799117"><ele>22.0</ele><time>2026-04-04T12:59:18.406Z</time></trkpt><trkpt lat="44.9935533" lon="10.6799917"><ele>22.0</ele><time>2026-04-04T12:59:19.405Z</time></trkpt><trkpt lat="44.9935917" lon="10.6800633"><ele>22.0</ele><time>2026-04-04T12:59:20.405Z</time></trkpt><trkpt lat="44.9936383" lon="10.6801283"><ele>22.0</ele><time>2026-04-04T12:59:21.406Z</time></trkpt><trkpt lat="44.99369" lon="10.6801967"><ele>22.0</ele><time>2026-04-04T12:59:22.406Z</time></trkpt><trkpt lat="44.993745" lon="10.680275"><ele>22.0</ele><time>2026-04-04T12:59:23.405Z</time></trkpt><trkpt lat="44.9938067" lon="10.680365"><ele>22.0</ele><time>2026-04-04T12:59:24.406Z</time></trkpt><trkpt lat="44.993865" lon="10.6804567"><ele>22.0</ele><time>2026-04-04T12:59:25.406Z</time></trkpt><trkpt lat="44.993925" lon="10.680555"><ele>22.0</ele><time>2026-04-04T12:59:26.406Z</time></trkpt><trkpt lat="44.9939833" lon="10.6806667"><ele>22.0</ele><time>2026-04-04T12:59:27.406Z</time></trkpt><trkpt lat="44.9940433" lon="10.680785"><ele>22.0</ele><time>2026-04-04T12:59:28.406Z</time></trkpt><trkpt lat="44.9940933" lon="10.6809017"><ele>22.0</ele><time>2026-04-04T12:59:29.406Z</time></trkpt><trkpt lat="44.9941417" lon="10.6810133"><ele>22.0</ele><time>2026-04-04T12:59:30.406Z</time></trkpt><trkpt lat="44.9941917" lon="10.6811217"><ele>22.0</ele><time>2026-04-04T12:59:31.405Z</time></trkpt><trkpt lat="44.994245" lon="10.6812333"><ele>22.0</ele><time>2026-04-04T12:59:32.406Z</time></trkpt><trkpt lat="44.9942983" lon="10.6813533"><ele>22.200000000000003</ele><time>2026-04-04T12:59:33.406Z</time></trkpt><trkpt lat="44.9943567" lon="10.6814783"><ele>22.4</ele><time>2026-04-04T12:59:34.405Z</time></trkpt><trkpt lat="44.9944217" lon="10.681605"><ele>22.6</ele><time>2026-04-04T12:59:35.406Z</time></trkpt><trkpt lat="44.9944867" lon="10.68173"><ele>22.799999999999997</ele><time>2026-04-04T12:59:36.406Z</time></trkpt><trkpt lat="44.994545" lon="10.6818567"><ele>23.0</ele><time>2026-04-04T12:59:37.405Z</time></trkpt><trkpt lat="44.9946067" lon="10.6819833"><ele>23.2</ele><time>2026-04-04T12:59:38.406Z</time></trkpt><trkpt lat="44.99466" lon="10.6821067"><ele>23.4</ele><time>2026-04-04T12:59:39.405Z</time></trkpt><trkpt lat="44.9947167" lon="10.6822283"><ele>23.599999999999998</ele><time>2026-04-04T12:59:40.406Z</time></trkpt><trkpt lat="44.99477" lon="10.68235"><ele>23.799999999999997</ele><time>2026-04-04T12:59:41.407Z</time></trkpt><trkpt lat="44.9948233" lon="10.68247"><ele>24.0</ele><time>2026-04-04T12:59:42.407Z</time></trkpt><trkpt lat="44.9948767" lon="10.68259"><ele>24.0</ele><time>2026-04-04T12:59:43.406Z</time></trkpt><trkpt lat="44.9949317" lon="10.6827033"><ele>24.0</ele><time>2026-04-04T12:59:44.406Z</time></trkpt><trkpt lat="44.994985" lon="10.6828133"><ele>24.0</ele><time>2026-04-04T12:59:45.406Z</time></trkpt><trkpt lat="44.9950367" lon="10.6829217"><ele>24.0</ele><time>2026-04-04T12:59:46.406Z</time></trkpt><trkpt lat="44.99508" lon="10.6830333"><ele>24.0</ele><time>2026-04-04T12:59:47.406Z</time></trkpt><trkpt lat="44.995115" lon="10.68315"><ele>24.0</ele><time>2026-04-04T12:59:48.407Z</time></trkpt><trkpt lat="44.9951333" lon="10.6832683"><ele>24.0</ele><time>2026-04-04T12:59:49.406Z</time></trkpt><trkpt lat="44.9951367" lon="10.68339"><ele>24.0</ele><time>2026-04-04T12:59:50.406Z</time></trkpt><trkpt lat="44.9951217" lon="10.6835067"><ele>24.0</ele><time>2026-04-04T12:59:51.406Z</time></trkpt><trkpt lat="44.9950883" lon="10.6836183"><ele>24.0</ele><time>2026-04-04T12:59:52.406Z</time></trkpt><trkpt lat="44.9950383" lon="10.683725"><ele>24.0</ele><time>2026-04-04T12:59:53.406Z</time></trkpt><trkpt lat="44.9949833" lon="10.6838267"><ele>23.833333333333332</ele><time>2026-04-04T12:59:54.408Z</time></trkpt><trkpt lat="44.9949217" lon="10.68391"><ele>23.666666666666668</ele><time>2026-04-04T12:59:55.406Z</time></trkpt><trkpt lat="44.99486" lon="10.6839933"><ele>23.5</ele><time>2026-04-04T12:59:56.406Z</time></trkpt><trkpt lat="44.9947967" lon="10.684075"><ele>23.333333333333336</ele><time>2026-04-04T12:59:57.406Z</time></trkpt><trkpt lat="44.9947283" lon="10.6841567"><ele>23.166666666666668</ele><time>2026-04-04T12:59:58.405Z</time></trkpt><trkpt lat="44.9946517" lon="10.68422"><ele>23.0</ele><time>2026-04-04T12:59:59.406Z</time></trkpt><trkpt lat="44.9945717" lon="10.6842883"><ele>23.0</ele><time>2026-04-04T13:00:00.406Z</time></trkpt><trkpt lat="44.9944883" lon="10.6843467"><ele>23.0</ele><time>2026-04-04T13:00:01.405Z</time></trkpt><trkpt lat="44.99441" lon="10.684395"><ele>23.0</ele><time>2026-04-04T13:00:02.406Z</time></trkpt><trkpt lat="44.9943267" lon="10.6844583"><ele>23.0</ele><time>2026-04-04T13:00:03.406Z</time></trkpt><trkpt lat="44.9942517" lon="10.6845283"><ele>23.0</ele><time>2026-04-04T13:00:04.406Z</time></trkpt><trkpt lat="44.9941717" lon="10.684605"><ele>23.333333333333336</ele><time>2026-04-04T13:00:05.405Z</time></trkpt><trkpt lat="44.9940983" lon="10.684675"><ele>23.666666666666668</ele><time>2026-04-04T13:00:06.405Z</time></trkpt><trkpt lat="44.994025" lon="10.6847533"><ele>24.0</ele><time>2026-04-04T13:00:07.405Z</time></trkpt><trkpt lat="44.9939533" lon="10.6848117"><ele>24.333333333333336</ele><time>2026-04-04T13:00:08.406Z</time></trkpt><trkpt lat="44.993885" lon="10.6848733"><ele>24.666666666666668</ele><time>2026-04-04T13:00:09.406Z</time></trkpt><trkpt lat="44.9938233" lon="10.684935"><ele>25.0</ele><time>2026-04-04T13:00:10.406Z</time></trkpt><trkpt lat="44.9937683" lon="10.6849983"><ele>25.0</ele><time>2026-04-04T13:00:11.404Z</time></trkpt><trkpt lat="44.993725" lon="10.6850767"><ele>25.0</ele><time>2026-04-04T13:00:12.403Z</time></trkpt><trkpt lat="44.993695" lon="10.685215"><ele>25.0</ele><time>2026-04-04T13:00:14.403Z</time></trkpt><trkpt lat="44.9937467" lon="10.6853083"><ele>25.0</ele><time>2026-04-04T13:00:16.404Z</time></trkpt><trkpt lat="44.9938767" lon="10.68533"><ele>25.0</ele><time>2026-04-04T13:00:18.403Z</time></trkpt><trkpt lat="44.99396" lon="10.6853417"><ele>25.0</ele><time>2026-04-04T13:00:19.404Z</time></trkpt><trkpt lat="44.9940533" lon="10.6853567"><ele>25.0</ele><time>2026-04-04T13:00:20.404Z</time></trkpt><trkpt lat="44.9941517" lon="10.685375"><ele>25.0</ele><time>2026-04-04T13:00:21.405Z</time></trkpt><trkpt lat="44.9942467" lon="10.6854"><ele>25.0</ele><time>2026-04-04T13:00:22.404Z</time></trkpt><trkpt lat="44.9943417" lon="10.6854283"><ele>25.0</ele><time>2026-04-04T13:00:23.405Z</time></trkpt><trkpt lat="44.9944383" lon="10.68546"><ele>25.0</ele><time>2026-04-04T13:00:24.404Z</time></trkpt><trkpt lat="44.994535" lon="10.6854983"><ele>25.0</ele><time>2026-04-04T13:00:25.404Z</time></trkpt><trkpt lat="44.9946317" lon="10.6855367"><ele>25.0</ele><time>2026-04-04T13:00:26.404Z</time></trkpt><trkpt lat="44.9947283" lon="10.6855733"><ele>25.0</ele><time>2026-04-04T13:00:27.404Z</time></trkpt><trkpt lat="44.9948217" lon="10.6856033"><ele>25.0</ele><time>2026-04-04T13:00:28.403Z</time></trkpt><trkpt lat="44.9949183" lon="10.6856383"><ele>24.5</ele><time>2026-04-04T13:00:29.404Z</time></trkpt><trkpt lat="44.99502" lon="10.6856733"><ele>24.0</ele><time>2026-04-04T13:00:30.404Z</time></trkpt><trkpt lat="44.9951283" lon="10.685705"><ele>23.5</ele><time>2026-04-04T13:00:31.404Z</time></trkpt><trkpt lat="44.9952433" lon="10.68573"><ele>23.0</ele><time>2026-04-04T13:00:32.405Z</time></trkpt><trkpt lat="44.9953617" lon="10.6857467"><ele>23.0</ele><time>2026-04-04T13:00:33.406Z</time></trkpt><trkpt lat="44.9954833" lon="10.6857567"><ele>23.0</ele><time>2026-04-04T13:00:34.406Z</time></trkpt><trkpt lat="44.995605" lon="10.6857667"><ele>23.0</ele><time>2026-04-04T13:00:35.406Z</time></trkpt><trkpt lat="44.9957217" lon="10.6857783"><ele>23.0</ele><time>2026-04-04T13:00:36.405Z</time></trkpt><trkpt lat="44.995835" lon="10.6857917"><ele>22.75</ele><time>2026-04-04T13:00:37.406Z</time></trkpt><trkpt lat="44.9959483" lon="10.6858017"><ele>22.5</ele><time>2026-04-04T13:00:38.406Z</time></trkpt><trkpt lat="44.9960633" lon="10.6858083"><ele>22.25</ele><time>2026-04-04T13:00:39.406Z</time></trkpt><trkpt lat="44.996175" lon="10.685805"><ele>22.0</ele><time>2026-04-04T13:00:40.404Z</time></trkpt><trkpt lat="44.996285" lon="10.6857983"><ele>22.0</ele><time>2026-04-04T13:00:41.406Z</time></trkpt><trkpt lat="44.9963933" lon="10.685795"><ele>22.0</ele><time>2026-04-04T13:00:42.403Z</time></trkpt><trkpt lat="44.9965" lon="10.68579"><ele>22.0</ele><time>2026-04-04T13:00:43.404Z</time></trkpt><trkpt lat="44.9966067" lon="10.6857817"><ele>22.0</ele><time>2026-04-04T13:00:44.403Z</time></trkpt><trkpt lat="44.9967167" lon="10.685775"><ele>22.0</ele><time>2026-04-04T13:00:45.404Z</time></trkpt><trkpt lat="44.996825" lon="10.68577"><ele>21.8</ele><time>2026-04-04T13:00:46.403Z</time></trkpt><trkpt lat="44.9969333" lon="10.685765"><ele>21.6</ele><time>2026-04-04T13:00:47.404Z</time></trkpt><trkpt lat="44.9970433" lon="10.6857633"><ele>21.400000000000002</ele><time>2026-04-04T13:00:48.404Z</time></trkpt><trkpt lat="44.997155" lon="10.6857633"><ele>21.200000000000003</ele><time>2026-04-04T13:00:49.406Z</time></trkpt><trkpt lat="44.9972683" lon="10.6857683"><ele>21.0</ele><time>2026-04-04T13:00:50.406Z</time></trkpt><trkpt lat="44.997385" lon="10.6857767"><ele>21.25</ele><time>2026-04-04T13:00:51.406Z</time></trkpt><trkpt lat="44.9975033" lon="10.6857867"><ele>21.5</ele><time>2026-04-04T13:00:52.406Z</time></trkpt><trkpt lat="44.9976217" lon="10.6857983"><ele>21.75</ele><time>2026-04-04T13:00:53.407Z</time></trkpt><trkpt lat="44.99774" lon="10.685815"><ele>22.0</ele><time>2026-04-04T13:00:54.406Z</time></trkpt><trkpt lat="44.9978583" lon="10.6858383"><ele>22.0</ele><time>2026-04-04T13:00:55.406Z</time></trkpt><trkpt lat="44.9979717" lon="10.685865"><ele>22.0</ele><time>2026-04-04T13:00:56.406Z</time></trkpt><trkpt lat="44.9980833" lon="10.6858883"><ele>22.0</ele><time>2026-04-04T13:00:57.406Z</time></trkpt><trkpt lat="44.9981917" lon="10.68591"><ele>22.0</ele><time>2026-04-04T13:00:58.406Z</time></trkpt><trkpt lat="44.998295" lon="10.6859367"><ele>22.0</ele><time>2026-04-04T13:00:59.406Z</time></trkpt><trkpt lat="44.9983967" lon="10.6859617"><ele>22.0</ele><time>2026-04-04T13:01:00.407Z</time></trkpt><trkpt lat="44.9984917" lon="10.685985"><ele>22.0</ele><time>2026-04-04T13:01:01.406Z</time></trkpt><trkpt lat="44.9985867" lon="10.6860117"><ele>22.0</ele><time>2026-04-04T13:01:02.406Z</time></trkpt><trkpt lat="44.9986833" lon="10.686035"><ele>22.0</ele><time>2026-04-04T13:01:03.407Z</time></trkpt><trkpt lat="44.9987783" lon="10.6860583"><ele>22.0</ele><time>2026-04-04T13:01:04.406Z</time></trkpt><trkpt lat="44.9988733" lon="10.686085"><ele>21.6</ele><time>2026-04-04T13:01:05.406Z</time></trkpt><trkpt lat="44.99897" lon="10.6861133"><ele>21.200000000000003</ele><time>2026-04-04T13:01:06.406Z</time></trkpt><trkpt lat="44.9990683" lon="10.6861467"><ele>20.8</ele><time>2026-04-04T13:01:07.407Z</time></trkpt><trkpt lat="44.9991667" lon="10.6861783"><ele>20.4</ele><time>2026-04-04T13:01:08.406Z</time></trkpt><trkpt lat="44.999265" lon="10.686205"><ele>20.0</ele><time>2026-04-04T13:01:09.408Z</time></trkpt><trkpt lat="44.999365" lon="10.68623"><ele>19.8</ele><time>2026-04-04T13:01:10.406Z</time></trkpt><trkpt lat="44.999465" lon="10.6862517"><ele>19.6</ele><time>2026-04-04T13:01:11.406Z</time></trkpt><trkpt lat="44.9995617" lon="10.686275"><ele>19.4</ele><time>2026-04-04T13:01:12.407Z</time></trkpt><trkpt lat="44.99966" lon="10.6863017"><ele>19.2</ele><time>2026-04-04T13:01:13.403Z</time></trkpt><trkpt lat="44.9997617" lon="10.68633"><ele>19.0</ele><time>2026-04-04T13:01:14.403Z</time></trkpt><trkpt lat="44.9998633" lon="10.6863617"><ele>19.0</ele><time>2026-04-04T13:01:15.403Z</time></trkpt><trkpt lat="44.99996" lon="10.6863967"><ele>19.0</ele><time>2026-04-04T13:01:16.403Z</time></trkpt><trkpt lat="45.0000617" lon="10.6864433"><ele>19.0</ele><time>2026-04-04T13:01:17.403Z</time></trkpt><trkpt lat="45.0001667" lon="10.6864883"><ele>19.0</ele><time>2026-04-04T13:01:18.404Z</time></trkpt><trkpt lat="45.0002733" lon="10.68653"><ele>19.0</ele><time>2026-04-04T13:01:19.406Z</time></trkpt><trkpt lat="45.000385" lon="10.6865683"><ele>19.0</ele><time>2026-04-04T13:01:20.406Z</time></trkpt><trkpt lat="45.0005" lon="10.6866017"><ele>19.0</ele><time>2026-04-04T13:01:21.407Z</time></trkpt><trkpt lat="45.0006133" lon="10.686635"><ele>19.0</ele><time>2026-04-04T13:01:22.406Z</time></trkpt><trkpt lat="45.000725" lon="10.6866683"><ele>19.0</ele><time>2026-04-04T13:01:23.406Z</time></trkpt><trkpt lat="45.0008333" lon="10.6867"><ele>19.25</ele><time>2026-04-04T13:01:24.406Z</time></trkpt><trkpt lat="45.0009433" lon="10.6867317"><ele>19.5</ele><time>2026-04-04T13:01:25.407Z</time></trkpt><trkpt lat="45.0010583" lon="10.6867633"><ele>19.75</ele><time>2026-04-04T13:01:26.406Z</time></trkpt><trkpt lat="45.0011733" lon="10.6867917"><ele>20.0</ele><time>2026-04-04T13:01:27.407Z</time></trkpt><trkpt lat="45.0012883" lon="10.6868183"><ele>20.0</ele><time>2026-04-04T13:01:28.407Z</time></trkpt><trkpt lat="45.001405" lon="10.686845"><ele>20.0</ele><time>2026-04-04T13:01:29.406Z</time></trkpt><trkpt lat="45.0015217" lon="10.6868733"><ele>20.0</ele><time>2026-04-04T13:01:30.405Z</time></trkpt><trkpt lat="45.00164" lon="10.6869033"><ele>20.0</ele><time>2026-04-04T13:01:31.407Z</time></trkpt><trkpt lat="45.001755" lon="10.6869333"><ele>19.5</ele><time>2026-04-04T13:01:32.406Z</time></trkpt><trkpt lat="45.0018683" lon="10.6869617"><ele>19.0</ele><time>2026-04-04T13:01:33.406Z</time></trkpt><trkpt lat="45.0019817" lon="10.68699"><ele>18.5</ele><time>2026-04-04T13:01:34.406Z</time></trkpt><trkpt lat="45.0020933" lon="10.68702"><ele>18.0</ele><time>2026-04-04T13:01:35.406Z</time></trkpt><trkpt lat="45.0022067" lon="10.68705"><ele>18.0</ele><time>2026-04-04T13:01:36.408Z</time></trkpt><trkpt lat="45.00232" lon="10.68708"><ele>18.0</ele><time>2026-04-04T13:01:37.407Z</time></trkpt><trkpt lat="45.00243" lon="10.68711"><ele>18.0</ele><time>2026-04-04T13:01:38.406Z</time></trkpt><trkpt lat="45.0025417" lon="10.687135"><ele>18.0</ele><time>2026-04-04T13:01:39.407Z</time></trkpt><trkpt lat="45.0026517" lon="10.6871533"><ele>18.25</ele><time>2026-04-04T13:01:40.406Z</time></trkpt><trkpt lat="45.0027633" lon="10.68716"><ele>18.5</ele><time>2026-04-04T13:01:41.407Z</time></trkpt><trkpt lat="45.0028767" lon="10.68716"><ele>18.75</ele><time>2026-04-04T13:01:42.404Z</time></trkpt><trkpt lat="45.0029933" lon="10.68715"><ele>19.0</ele><time>2026-04-04T13:01:43.404Z</time></trkpt><trkpt lat="45.00311" lon="10.6871383"><ele>19.0</ele><time>2026-04-04T13:01:44.404Z</time></trkpt><trkpt lat="45.0032217" lon="10.68713"><ele>19.0</ele><time>2026-04-04T13:01:45.405Z</time></trkpt><trkpt lat="45.0033267" lon="10.687125"><ele>19.0</ele><time>2026-04-04T13:01:46.404Z</time></trkpt><trkpt lat="45.00343" lon="10.6871283"><ele>19.0</ele><time>2026-04-04T13:01:47.404Z</time></trkpt><trkpt lat="45.00353" lon="10.68714"><ele>19.0</ele><time>2026-04-04T13:01:48.404Z</time></trkpt><trkpt lat="45.0036317" lon="10.687165"><ele>19.5</ele><time>2026-04-04T13:01:49.404Z</time></trkpt><trkpt lat="45.0037333" lon="10.6872033"><ele>20.0</ele><time>2026-04-04T13:01:50.404Z</time></trkpt><trkpt lat="45.00384" lon="10.68725"><ele>20.5</ele><time>2026-04-04T13:01:51.403Z</time></trkpt><trkpt lat="45.0039483" lon="10.6873017"><ele>21.0</ele><time>2026-04-04T13:01:52.404Z</time></trkpt><trkpt lat="45.0040617" lon="10.687355"><ele>21.0</ele><time>2026-04-04T13:01:53.404Z</time></trkpt><trkpt lat="45.0041817" lon="10.6874067"><ele>21.0</ele><time>2026-04-04T13:01:54.404Z</time></trkpt><trkpt lat="45.004305" lon="10.6874617"><ele>21.0</ele><time>2026-04-04T13:01:55.405Z</time></trkpt><trkpt lat="45.0044233" lon="10.6875183"><ele>21.0</ele><time>2026-04-04T13:01:56.404Z</time></trkpt><trkpt lat="45.00454" lon="10.6875767"><ele>21.0</ele><time>2026-04-04T13:01:57.405Z</time></trkpt><trkpt lat="45.0046533" lon="10.6876333"><ele>21.0</ele><time>2026-04-04T13:01:58.404Z</time></trkpt><trkpt lat="45.00477" lon="10.6876933"><ele>21.0</ele><time>2026-04-04T13:01:59.405Z</time></trkpt><trkpt lat="45.0048883" lon="10.6877533"><ele>21.0</ele><time>2026-04-04T13:02:00.404Z</time></trkpt><trkpt lat="45.0050083" lon="10.687815"><ele>20.5</ele><time>2026-04-04T13:02:01.405Z</time></trkpt><trkpt lat="45.0051267" lon="10.687875"><ele>20.0</ele><time>2026-04-04T13:02:02.406Z</time></trkpt><trkpt lat="45.005245" lon="10.6879367"><ele>19.5</ele><time>2026-04-04T13:02:03.407Z</time></trkpt><trkpt lat="45.0053633" lon="10.6879967"><ele>19.0</ele><time>2026-04-04T13:02:04.406Z</time></trkpt><trkpt lat="45.0054833" lon="10.6880517"><ele>19.0</ele><time>2026-04-04T13:02:05.406Z</time></trkpt><trkpt lat="45.0056" lon="10.6881017"><ele>19.0</ele><time>2026-04-04T13:02:06.406Z</time></trkpt><trkpt lat="45.0057167" lon="10.6881417"><ele>19.0</ele><time>2026-04-04T13:02:07.407Z</time></trkpt><trkpt lat="45.0058317" lon="10.688175"><ele>19.0</ele><time>2026-04-04T13:02:08.406Z</time></trkpt><trkpt lat="45.005945" lon="10.6882033"><ele>19.0</ele><time>2026-04-04T13:02:09.405Z</time></trkpt><trkpt lat="45.0060583" lon="10.6882267"><ele>19.0</ele><time>2026-04-04T13:02:10.405Z</time></trkpt><trkpt lat="45.0061717" lon="10.68824"><ele>19.0</ele><time>2026-04-04T13:02:11.406Z</time></trkpt><trkpt lat="45.006285" lon="10.6882467"><ele>19.0</ele><time>2026-04-04T13:02:12.404Z</time></trkpt><trkpt lat="45.0064" lon="10.688245"><ele>19.0</ele><time>2026-04-04T13:02:13.404Z</time></trkpt><trkpt lat="45.0065183" lon="10.6882367"><ele>19.0</ele><time>2026-04-04T13:02:14.404Z</time></trkpt><trkpt lat="45.0066367" lon="10.6882233"><ele>19.0</ele><time>2026-04-04T13:02:15.405Z</time></trkpt><trkpt lat="45.006755" lon="10.68821"><ele>19.0</ele><time>2026-04-04T13:02:16.403Z</time></trkpt><trkpt lat="45.0068733" lon="10.688195"><ele>19.25</ele><time>2026-04-04T13:02:17.404Z</time></trkpt><trkpt lat="45.0069883" lon="10.6881817"><ele>19.5</ele><time>2026-04-04T13:02:18.404Z</time></trkpt><trkpt lat="45.0071067" lon="10.6881667"><ele>19.75</ele><time>2026-04-04T13:02:19.403Z</time></trkpt><trkpt lat="45.0072217" lon="10.68815"><ele>20.0</ele><time>2026-04-04T13:02:20.404Z</time></trkpt><trkpt lat="45.007335" lon="10.68813"><ele>20.0</ele><time>2026-04-04T13:02:21.404Z</time></trkpt><trkpt lat="45.0074433" lon="10.6881033"><ele>20.0</ele><time>2026-04-04T13:02:22.404Z</time></trkpt><trkpt lat="45.00755" lon="10.688075"><ele>20.0</ele><time>2026-04-04T13:02:23.403Z</time></trkpt><trkpt lat="45.0076567" lon="10.6880333"><ele>20.0</ele><time>2026-04-04T13:02:24.404Z</time></trkpt><trkpt lat="45.00776" lon="10.6879817"><ele>20.0</ele><time>2026-04-04T13:02:25.404Z</time></trkpt><trkpt lat="45.007865" lon="10.6879217"><ele>20.0</ele><time>2026-04-04T13:02:26.403Z</time></trkpt><trkpt lat="45.0079683" lon="10.6878583"><ele>20.0</ele><time>2026-04-04T13:02:27.404Z</time></trkpt><trkpt lat="45.0080717" lon="10.6877917"><ele>20.0</ele><time>2026-04-04T13:02:28.404Z</time></trkpt><trkpt lat="45.0081733" lon="10.6877283"><ele>20.0</ele><time>2026-04-04T13:02:29.404Z</time></trkpt><trkpt lat="45.0082767" lon="10.6876667"><ele>20.0</ele><time>2026-04-04T13:02:30.404Z</time></trkpt><trkpt lat="45.0083783" lon="10.687605"><ele>20.0</ele><time>2026-04-04T13:02:31.405Z</time></trkpt><trkpt lat="45.0084817" lon="10.6875417"><ele>20.0</ele><time>2026-04-04T13:02:32.406Z</time></trkpt><trkpt lat="45.008585" lon="10.6874783"><ele>20.0</ele><time>2026-04-04T13:02:33.407Z</time></trkpt><trkpt lat="45.0086833" lon="10.68742"><ele>20.0</ele><time>2026-04-04T13:02:34.407Z</time></trkpt><trkpt lat="45.0087783" lon="10.6873633"><ele>20.0</ele><time>2026-04-04T13:02:35.406Z</time></trkpt><trkpt lat="45.0088683" lon="10.6873067"><ele>20.0</ele><time>2026-04-04T13:02:36.406Z</time></trkpt><trkpt lat="45.0089617" lon="10.6872483"><ele>20.0</ele><time>2026-04-04T13:02:37.406Z</time></trkpt><trkpt lat="45.0090583" lon="10.6871883"><ele>20.0</ele><time>2026-04-04T13:02:38.407Z</time></trkpt><trkpt lat="45.0091533" lon="10.687125"><ele>20.0</ele><time>2026-04-04T13:02:39.407Z</time></trkpt><trkpt lat="45.0092467" lon="10.6870583"><ele>20.0</ele><time>2026-04-04T13:02:40.407Z</time></trkpt><trkpt lat="45.009335" lon="10.6869933"><ele>20.166666666666668</ele><time>2026-04-04T13:02:41.404Z</time></trkpt><trkpt lat="45.0094167" lon="10.6869283"><ele>20.333333333333336</ele><time>2026-04-04T13:02:42.404Z</time></trkpt><trkpt lat="45.0094917" lon="10.686865"><ele>20.5</ele><time>2026-04-04T13:02:43.404Z</time></trkpt><trkpt lat="45.0095583" lon="10.6868"><ele>20.666666666666668</ele><time>2026-04-04T13:02:44.404Z</time></trkpt><trkpt lat="45.00962" lon="10.6867317"><ele>20.833333333333332</ele><time>2026-04-04T13:02:45.404Z</time></trkpt><trkpt lat="45.0096783" lon="10.6866617"><ele>21.0</ele><time>2026-04-04T13:02:46.404Z</time></trkpt><trkpt lat="45.0097283" lon="10.6865833"><ele>21.0</ele><time>2026-04-04T13:02:47.405Z</time></trkpt><trkpt lat="45.0097717" lon="10.6864983"><ele>21.0</ele><time>2026-04-04T13:02:48.404Z</time></trkpt><trkpt lat="45.0098" lon="10.6864133"><ele>21.0</ele><time>2026-04-04T13:02:49.405Z</time></trkpt><trkpt lat="45.009835" lon="10.68628"><ele>21.0</ele><time>2026-04-04T13:02:51.405Z</time></trkpt><trkpt lat="45.0098533" lon="10.6861683"><ele>21.0</ele><time>2026-04-04T13:02:54.402Z</time></trkpt><trkpt lat="45.0098533" lon="10.686055"><ele>21.0</ele><time>2026-04-04T13:02:57.403Z</time></trkpt><trkpt lat="45.0098517" lon="10.6859433"><ele>21.0</ele><time>2026-04-04T13:03:00.404Z</time></trkpt><trkpt lat="45.00987" lon="10.6858183"><ele>21.0</ele><time>2026-04-04T13:03:03.405Z</time></trkpt><trkpt lat="45.009885" lon="10.6857117"><ele>21.0</ele><time>2026-04-04T13:03:06.404Z</time></trkpt><trkpt lat="45.0099183" lon="10.6856317"><ele>21.0</ele><time>2026-04-04T13:03:09.406Z</time></trkpt><trkpt lat="45.009975" lon="10.6855567"><ele>21.0</ele><time>2026-04-04T13:03:12.404Z</time></trkpt><trkpt lat="45.01004" lon="10.6854483"><ele>21.0</ele><time>2026-04-04T13:03:15.404Z</time></trkpt><trkpt lat="45.0100833" lon="10.685315"><ele>21.200000000000003</ele><time>2026-04-04T13:03:17.404Z</time></trkpt><trkpt lat="45.01013" lon="10.6851433"><ele>21.400000000000002</ele><time>2026-04-04T13:03:19.405Z</time></trkpt><trkpt lat="45.01016" lon="10.6850467"><ele>21.6</ele><time>2026-04-04T13:03:20.404Z</time></trkpt><trkpt lat="45.01019" lon="10.684945"><ele>21.8</ele><time>2026-04-04T13:03:21.406Z</time></trkpt><trkpt lat="45.0102233" lon="10.6848383"><ele>22.0</ele><time>2026-04-04T13:03:22.405Z</time></trkpt><trkpt lat="45.0102567" lon="10.6847233"><ele>22.0</ele><time>2026-04-04T13:03:23.405Z</time></trkpt><trkpt lat="45.0102933" lon="10.6846067"><ele>22.0</ele><time>2026-04-04T13:03:24.409Z</time></trkpt><trkpt lat="45.01033" lon="10.6844833"><ele>22.0</ele><time>2026-04-04T13:03:25.405Z</time></trkpt><trkpt lat="45.0103667" lon="10.6843583"><ele>22.0</ele><time>2026-04-04T13:03:26.405Z</time></trkpt><trkpt lat="45.010405" lon="10.6842317"><ele>22.0</ele><time>2026-04-04T13:03:27.406Z</time></trkpt><trkpt lat="45.0104467" lon="10.6841017"><ele>21.8</ele><time>2026-04-04T13:03:28.405Z</time></trkpt><trkpt lat="45.0104883" lon="10.6839683"><ele>21.6</ele><time>2026-04-04T13:03:29.405Z</time></trkpt><trkpt lat="45.0105333" lon="10.6838333"><ele>21.400000000000002</ele><time>2026-04-04T13:03:30.405Z</time></trkpt><trkpt lat="45.01058" lon="10.6836967"><ele>21.200000000000003</ele><time>2026-04-04T13:03:31.406Z</time></trkpt><trkpt lat="45.0106267" lon="10.6835633"><ele>21.0</ele><time>2026-04-04T13:03:32.404Z</time></trkpt><trkpt lat="45.0106767" lon="10.6834283"><ele>21.0</ele><time>2026-04-04T13:03:33.405Z</time></trkpt><trkpt lat="45.01073" lon="10.6832883"><ele>21.0</ele><time>2026-04-04T13:03:34.405Z</time></trkpt><trkpt lat="45.0107867" lon="10.6831467"><ele>21.0</ele><time>2026-04-04T13:03:35.405Z</time></trkpt><trkpt lat="45.0108417" lon="10.6830033"><ele>21.0</ele><time>2026-04-04T13:03:36.405Z</time></trkpt><trkpt lat="45.0108967" lon="10.6828667"><ele>20.833333333333332</ele><time>2026-04-04T13:03:37.404Z</time></trkpt><trkpt lat="45.01095" lon="10.6827383"><ele>20.666666666666668</ele><time>2026-04-04T13:03:38.406Z</time></trkpt><trkpt lat="45.0109967" lon="10.6826233"><ele>20.5</ele><time>2026-04-04T13:03:39.406Z</time></trkpt><trkpt lat="45.0110433" lon="10.682525"><ele>20.333333333333336</ele><time>2026-04-04T13:03:40.404Z</time></trkpt><trkpt lat="45.0110833" lon="10.6824367"><ele>20.166666666666668</ele><time>2026-04-04T13:03:41.405Z</time></trkpt><trkpt lat="45.01112" lon="10.6823533"><ele>20.0</ele><time>2026-04-04T13:03:42.404Z</time></trkpt><trkpt lat="45.011155" lon="10.6822717"><ele>20.0</ele><time>2026-04-04T13:03:43.405Z</time></trkpt><trkpt lat="45.0111883" lon="10.6821917"><ele>20.0</ele><time>2026-04-04T13:03:44.404Z</time></trkpt><trkpt lat="45.01122" lon="10.6821117"><ele>20.0</ele><time>2026-04-04T13:03:45.405Z</time></trkpt><trkpt lat="45.01125" lon="10.68203"><ele>20.0</ele><time>2026-04-04T13:03:46.404Z</time></trkpt><trkpt lat="45.0112983" lon="10.6818817"><ele>20.0</ele><time>2026-04-04T13:03:48.405Z</time></trkpt><trkpt lat="45.01132" lon="10.68175"><ele>20.0</ele><time>2026-04-04T13:03:50.406Z</time></trkpt><trkpt lat="45.0113219" lon="10.6816514"><ele>19.666666666666668</ele><time>2026-04-04T13:03:52.406Z</time></trkpt><trkpt lat="45.0113177" lon="10.6815478"><ele>19.333333333333336</ele><time>2026-04-04T13:03:55.406Z</time></trkpt><trkpt lat="45.0113771" lon="10.6814635"><ele>19.0</ele><time>2026-04-04T13:03:59.426Z</time></trkpt><trkpt lat="45.0114444" lon="10.6814048"><ele>18.666666666666668</ele><time>2026-04-04T13:04:01.431Z</time></trkpt><trkpt lat="45.0114976" lon="10.6813157"><ele>18.333333333333332</ele><time>2026-04-04T13:04:03.435Z</time></trkpt><trkpt lat="45.0115511" lon="10.6812048"><ele>18.0</ele><time>2026-04-04T13:04:05.404Z</time></trkpt><trkpt lat="45.0116195" lon="10.6810721"><ele>18.0</ele><time>2026-04-04T13:04:07.404Z</time></trkpt><trkpt lat="45.011685" lon="10.6809617"><ele>18.0</ele><time>2026-04-04T13:04:09.405Z</time></trkpt><trkpt lat="45.0117663" lon="10.6808514"><ele>18.0</ele><time>2026-04-04T13:04:11.405Z</time></trkpt><trkpt lat="45.0118467" lon="10.6807114"><ele>18.0</ele><time>2026-04-04T13:04:13.404Z</time></trkpt><trkpt lat="45.0118791" lon="10.6806307"><ele>18.0</ele><time>2026-04-04T13:04:14.405Z</time></trkpt><trkpt lat="45.011911" lon="10.680545"><ele>18.0</ele><time>2026-04-04T13:04:15.405Z</time></trkpt><trkpt lat="45.0119453" lon="10.6804564"><ele>18.0</ele><time>2026-04-04T13:04:16.404Z</time></trkpt><trkpt lat="45.0119844" lon="10.6803718"><ele>18.0</ele><time>2026-04-04T13:04:17.404Z</time></trkpt><trkpt lat="45.0120237" lon="10.6802939"><ele>18.0</ele><time>2026-04-04T13:04:18.403Z</time></trkpt><trkpt lat="45.012099" lon="10.6801635"><ele>18.0</ele><time>2026-04-04T13:04:20.404Z</time></trkpt><trkpt lat="45.0121633" lon="10.6800379"><ele>18.0</ele><time>2026-04-04T13:04:22.406Z</time></trkpt><trkpt lat="45.0122367" lon="10.67992"><ele>18.2</ele><time>2026-04-04T13:04:24.406Z</time></trkpt><trkpt lat="45.0123" lon="10.6798017"><ele>18.4</ele><time>2026-04-04T13:04:26.405Z</time></trkpt><trkpt lat="45.0123683" lon="10.67968"><ele>18.599999999999998</ele><time>2026-04-04T13:04:28.406Z</time></trkpt><trkpt lat="45.0124533" lon="10.6795517"><ele>18.8</ele><time>2026-04-04T13:04:30.405Z</time></trkpt><trkpt lat="45.012495" lon="10.6794833"><ele>19.0</ele><time>2026-04-04T13:04:31.406Z</time></trkpt><trkpt lat="45.0125367" lon="10.6794133"><ele>19.0</ele><time>2026-04-04T13:04:32.406Z</time></trkpt><trkpt lat="45.012585" lon="10.6793433"><ele>19.0</ele><time>2026-04-04T13:04:33.406Z</time></trkpt><trkpt lat="45.012635" lon="10.67928"><ele>19.0</ele><time>2026-04-04T13:04:34.406Z</time></trkpt><trkpt lat="45.0126867" lon="10.679215"><ele>19.0</ele><time>2026-04-04T13:04:35.406Z</time></trkpt><trkpt lat="45.0127383" lon="10.6791483"><ele>19.0</ele><time>2026-04-04T13:04:36.406Z</time></trkpt><trkpt lat="45.0127967" lon="10.6790733"><ele>19.0</ele><time>2026-04-04T13:04:37.406Z</time></trkpt><trkpt lat="45.0128583" lon="10.67899"><ele>19.0</ele><time>2026-04-04T13:04:38.406Z</time></trkpt><trkpt lat="45.0129217" lon="10.6789"><ele>19.0</ele><time>2026-04-04T13:04:39.407Z</time></trkpt><trkpt lat="45.0129917" lon="10.6788167"><ele>19.0</ele><time>2026-04-04T13:04:40.406Z</time></trkpt><trkpt lat="45.013065" lon="10.6787217"><ele>19.0</ele><time>2026-04-04T13:04:41.406Z</time></trkpt><trkpt lat="45.01314" lon="10.6786283"><ele>19.0</ele><time>2026-04-04T13:04:42.404Z</time></trkpt><trkpt lat="45.0132183" lon="10.6785333"><ele>19.0</ele><time>2026-04-04T13:04:43.406Z</time></trkpt><trkpt lat="45.013295" lon="10.6784483"><ele>18.8</ele><time>2026-04-04T13:04:44.405Z</time></trkpt><trkpt lat="45.01337" lon="10.678365"><ele>18.599999999999998</ele><time>2026-04-04T13:04:45.405Z</time></trkpt><trkpt lat="45.0134433" lon="10.67828"><ele>18.4</ele><time>2026-04-04T13:04:46.404Z</time></trkpt><trkpt lat="45.0135167" lon="10.6782017"><ele>18.2</ele><time>2026-04-04T13:04:47.405Z</time></trkpt><trkpt lat="45.0135917" lon="10.67812"><ele>18.0</ele><time>2026-04-04T13:04:48.406Z</time></trkpt><trkpt lat="45.0136633" lon="10.6780283"><ele>18.0</ele><time>2026-04-04T13:04:49.407Z</time></trkpt><trkpt lat="45.0137367" lon="10.6779367"><ele>18.0</ele><time>2026-04-04T13:04:50.406Z</time></trkpt><trkpt lat="45.0138117" lon="10.6778517"><ele>18.0</ele><time>2026-04-04T13:04:51.406Z</time></trkpt><trkpt lat="45.0138867" lon="10.6777733"><ele>18.0</ele><time>2026-04-04T13:04:52.406Z</time></trkpt><trkpt lat="45.0139617" lon="10.677705"><ele>18.0</ele><time>2026-04-04T13:04:53.406Z</time></trkpt><trkpt lat="45.0140333" lon="10.6776383"><ele>18.0</ele><time>2026-04-04T13:04:54.406Z</time></trkpt><trkpt lat="45.0141083" lon="10.677565"><ele>18.0</ele><time>2026-04-04T13:04:55.406Z</time></trkpt><trkpt lat="45.014185" lon="10.6774967"><ele>18.0</ele><time>2026-04-04T13:04:56.406Z</time></trkpt><trkpt lat="45.01426" lon="10.6774367"><ele>18.0</ele><time>2026-04-04T13:04:57.406Z</time></trkpt><trkpt lat="45.0143333" lon="10.677375"><ele>18.0</ele><time>2026-04-04T13:04:58.405Z</time></trkpt><trkpt lat="45.0144067" lon="10.6773067"><ele>18.0</ele><time>2026-04-04T13:04:59.406Z</time></trkpt><trkpt lat="45.01448" lon="10.677235"><ele>18.166666666666668</ele><time>2026-04-04T13:05:00.404Z</time></trkpt><trkpt lat="45.0145483" lon="10.6771733"><ele>18.333333333333332</ele><time>2026-04-04T13:05:01.406Z</time></trkpt><trkpt lat="45.0146167" lon="10.6771117"><ele>18.5</ele><time>2026-04-04T13:05:02.405Z</time></trkpt><trkpt lat="45.0146883" lon="10.6770483"><ele>18.666666666666664</ele><time>2026-04-04T13:05:03.405Z</time></trkpt><trkpt lat="45.0147567" lon="10.676985"><ele>18.833333333333332</ele><time>2026-04-04T13:05:04.404Z</time></trkpt><trkpt lat="45.0148233" lon="10.6769233"><ele>19.0</ele><time>2026-04-04T13:05:05.404Z</time></trkpt><trkpt lat="45.01489" lon="10.6768617"><ele>19.0</ele><time>2026-04-04T13:05:06.404Z</time></trkpt><trkpt lat="45.0149533" lon="10.6768"><ele>19.0</ele><time>2026-04-04T13:05:07.406Z</time></trkpt><trkpt lat="45.0150117" lon="10.6767467"><ele>19.0</ele><time>2026-04-04T13:05:08.405Z</time></trkpt><trkpt lat="45.0150767" lon="10.6766933"><ele>19.0</ele><time>2026-04-04T13:05:09.405Z</time></trkpt><trkpt lat="45.0151317" lon="10.6766483"><ele>19.0</ele><time>2026-04-04T13:05:10.406Z</time></trkpt><trkpt lat="45.01519" lon="10.6766117"><ele>19.0</ele><time>2026-04-04T13:05:11.406Z</time></trkpt><trkpt lat="45.01525" lon="10.67658"><ele>19.0</ele><time>2026-04-04T13:05:12.404Z</time></trkpt><trkpt lat="45.015365" lon="10.6765067"><ele>19.0</ele><time>2026-04-04T13:05:14.404Z</time></trkpt><trkpt lat="45.0154233" lon="10.6764567"><ele>19.0</ele><time>2026-04-04T13:05:15.405Z</time></trkpt><trkpt lat="45.0154783" lon="10.6764"><ele>19.0</ele><time>2026-04-04T13:05:16.405Z</time></trkpt><trkpt lat="45.015535" lon="10.6763417"><ele>19.0</ele><time>2026-04-04T13:05:17.404Z</time></trkpt><trkpt lat="45.0155983" lon="10.6762817"><ele>19.0</ele><time>2026-04-04T13:05:18.405Z</time></trkpt><trkpt lat="45.0156617" lon="10.6762133"><ele>19.0</ele><time>2026-04-04T13:05:19.407Z</time></trkpt><trkpt lat="45.01573" lon="10.676145"><ele>19.0</ele><time>2026-04-04T13:05:20.405Z</time></trkpt><trkpt lat="45.0158" lon="10.676075"><ele>19.2</ele><time>2026-04-04T13:05:21.406Z</time></trkpt><trkpt lat="45.0158783" lon="10.676005"><ele>19.4</ele><time>2026-04-04T13:05:22.406Z</time></trkpt><trkpt lat="45.0159533" lon="10.6759383"><ele>19.6</ele><time>2026-04-04T13:05:23.406Z</time></trkpt><trkpt lat="45.0160333" lon="10.6758683"><ele>19.8</ele><time>2026-04-04T13:05:24.405Z</time></trkpt><trkpt lat="45.0161117" lon="10.67579"><ele>20.0</ele><time>2026-04-04T13:05:25.407Z</time></trkpt><trkpt lat="45.016185" lon="10.67572"><ele>20.0</ele><time>2026-04-04T13:05:26.404Z</time></trkpt><trkpt lat="45.016265" lon="10.67565"><ele>20.0</ele><time>2026-04-04T13:05:27.405Z</time></trkpt><trkpt lat="45.0163417" lon="10.6755833"><ele>20.0</ele><time>2026-04-04T13:05:28.404Z</time></trkpt><trkpt lat="45.016415" lon="10.6755167"><ele>20.0</ele><time>2026-04-04T13:05:29.403Z</time></trkpt><trkpt lat="45.0164867" lon="10.675455"><ele>20.0</ele><time>2026-04-04T13:05:30.405Z</time></trkpt><trkpt lat="45.0165617" lon="10.6753917"><ele>20.0</ele><time>2026-04-04T13:05:31.405Z</time></trkpt><trkpt lat="45.0166383" lon="10.6753317"><ele>19.833333333333336</ele><time>2026-04-04T13:05:32.405Z</time></trkpt><trkpt lat="45.016715" lon="10.6752683"><ele>19.666666666666668</ele><time>2026-04-04T13:05:33.406Z</time></trkpt><trkpt lat="45.0167967" lon="10.6752033"><ele>19.5</ele><time>2026-04-04T13:05:34.406Z</time></trkpt><trkpt lat="45.0168767" lon="10.675145"><ele>19.333333333333332</ele><time>2026-04-04T13:05:35.404Z</time></trkpt><trkpt lat="45.0169367" lon="10.6750967"><ele>19.166666666666664</ele><time>2026-04-04T13:05:36.406Z</time></trkpt><trkpt lat="45.017" lon="10.6750583"><ele>19.0</ele><time>2026-04-04T13:05:37.405Z</time></trkpt><trkpt lat="45.017065" lon="10.67502"><ele>19.0</ele><time>2026-04-04T13:05:38.404Z</time></trkpt><trkpt lat="45.0171283" lon="10.6749867"><ele>19.0</ele><time>2026-04-04T13:05:39.405Z</time></trkpt><trkpt lat="45.01719" lon="10.6749533"><ele>19.0</ele><time>2026-04-04T13:05:40.404Z</time></trkpt><trkpt lat="45.0173083" lon="10.6748867"><ele>19.0</ele><time>2026-04-04T13:05:42.405Z</time></trkpt><trkpt lat="45.01737" lon="10.674855"><ele>19.0</ele><time>2026-04-04T13:05:43.405Z</time></trkpt><trkpt lat="45.017435" lon="10.6748183"><ele>19.0</ele><time>2026-04-04T13:05:44.404Z</time></trkpt><trkpt lat="45.0175" lon="10.674785"><ele>18.666666666666664</ele><time>2026-04-04T13:05:45.404Z</time></trkpt><trkpt lat="45.0175617" lon="10.6747533"><ele>18.333333333333332</ele><time>2026-04-04T13:05:46.404Z</time></trkpt><trkpt lat="45.0176233" lon="10.6747233"><ele>18.0</ele><time>2026-04-04T13:05:47.405Z</time></trkpt><trkpt lat="45.0176833" lon="10.6746917"><ele>17.666666666666668</ele><time>2026-04-04T13:05:48.404Z</time></trkpt><trkpt lat="45.0177467" lon="10.6746567"><ele>17.333333333333336</ele><time>2026-04-04T13:05:49.406Z</time></trkpt><trkpt lat="45.017865" lon="10.6745967"><ele>17.0</ele><time>2026-04-04T13:05:51.406Z</time></trkpt><trkpt lat="45.0179783" lon="10.6745433"><ele>17.0</ele><time>2026-04-04T13:05:53.405Z</time></trkpt><trkpt lat="45.0180983" lon="10.67449"><ele>17.0</ele><time>2026-04-04T13:05:55.405Z</time></trkpt><trkpt lat="45.0182017" lon="10.674445"><ele>17.0</ele><time>2026-04-04T13:05:57.405Z</time></trkpt><trkpt lat="45.01829" lon="10.6744217"><ele>17.0</ele><time>2026-04-04T13:05:59.405Z</time></trkpt><trkpt lat="45.0183867" lon="10.6743917"><ele>17.0</ele><time>2026-04-04T13:06:01.406Z</time></trkpt><trkpt lat="45.0184817" lon="10.6743533"><ele>17.2</ele><time>2026-04-04T13:06:03.405Z</time></trkpt><trkpt lat="45.0185833" lon="10.6743133"><ele>17.4</ele><time>2026-04-04T13:06:05.404Z</time></trkpt><trkpt lat="45.018645" lon="10.6742867"><ele>17.6</ele><time>2026-04-04T13:06:07.405Z</time></trkpt><trkpt lat="45.0187383" lon="10.6742483"><ele>17.8</ele><time>2026-04-04T13:06:14.405Z</time></trkpt><trkpt lat="45.0188283" lon="10.674215"><ele>18.0</ele><time>2026-04-04T13:06:16.405Z</time></trkpt><trkpt lat="45.0189317" lon="10.6741867"><ele>18.0</ele><time>2026-04-04T13:06:18.404Z</time></trkpt><trkpt lat="45.0190233" lon="10.67417"><ele>18.0</ele><time>2026-04-04T13:06:20.404Z</time></trkpt><trkpt lat="45.0190983" lon="10.674145"><ele>18.0</ele><time>2026-04-04T13:06:22.404Z</time></trkpt><trkpt lat="45.019185" lon="10.6741217"><ele>18.0</ele><time>2026-04-04T13:06:24.404Z</time></trkpt><trkpt lat="45.0192717" lon="10.67409"><ele>18.0</ele><time>2026-04-04T13:06:26.404Z</time></trkpt><trkpt lat="45.0193383" lon="10.6740483"><ele>18.0</ele><time>2026-04-04T13:06:28.404Z</time></trkpt><trkpt lat="45.019425" lon="10.6739883"><ele>18.0</ele><time>2026-04-04T13:06:37.404Z</time></trkpt><trkpt lat="45.019505" lon="10.6739567"><ele>18.0</ele><time>2026-04-04T13:06:39.404Z</time></trkpt><trkpt lat="45.0196033" lon="10.6738983"><ele>18.0</ele><time>2026-04-04T13:06:41.404Z</time></trkpt><trkpt lat="45.019695" lon="10.6738417"><ele>18.0</ele><time>2026-04-04T13:06:43.404Z</time></trkpt><trkpt lat="45.0197867" lon="10.6738167"><ele>18.0</ele><time>2026-04-04T13:06:45.406Z</time></trkpt><trkpt lat="45.0198683" lon="10.6738017"><ele>18.0</ele><time>2026-04-04T13:06:47.404Z</time></trkpt><trkpt lat="45.0199617" lon="10.6737733"><ele>18.0</ele><time>2026-04-04T13:06:49.404Z</time></trkpt><trkpt lat="45.0200767" lon="10.6737383"><ele>18.0</ele><time>2026-04-04T13:06:51.405Z</time></trkpt><trkpt lat="45.02019" lon="10.6737083"><ele>18.0</ele><time>2026-04-04T13:06:53.405Z</time></trkpt><trkpt lat="45.0202533" lon="10.6736783"><ele>18.0</ele><time>2026-04-04T13:06:54.404Z</time></trkpt><trkpt lat="45.0203133" lon="10.6736467"><ele>17.833333333333332</ele><time>2026-04-04T13:06:55.404Z</time></trkpt><trkpt lat="45.0203733" lon="10.6736183"><ele>17.666666666666668</ele><time>2026-04-04T13:06:56.404Z</time></trkpt><trkpt lat="45.0204883" lon="10.673585"><ele>17.5</ele><time>2026-04-04T13:06:58.405Z</time></trkpt><trkpt lat="45.0205517" lon="10.6735783"><ele>17.333333333333336</ele><time>2026-04-04T13:06:59.404Z</time></trkpt><trkpt lat="45.02067" lon="10.67355"><ele>17.166666666666668</ele><time>2026-04-04T13:07:01.402Z</time></trkpt><trkpt lat="45.0207333" lon="10.6735383"><ele>17.0</ele><time>2026-04-04T13:07:02.404Z</time></trkpt><trkpt lat="45.0207967" lon="10.6735333"><ele>17.8</ele><time>2026-04-04T13:07:03.405Z</time></trkpt><trkpt lat="45.020865" lon="10.6735333"><ele>18.6</ele><time>2026-04-04T13:07:04.405Z</time></trkpt><trkpt lat="45.0209317" lon="10.6735367"><ele>19.400000000000002</ele><time>2026-04-04T13:07:05.406Z</time></trkpt><trkpt lat="45.0210483" lon="10.6735317"><ele>20.2</ele><time>2026-04-04T13:07:07.406Z</time></trkpt><trkpt lat="45.0211683" lon="10.6735367"><ele>21.0</ele><time>2026-04-04T13:07:09.407Z</time></trkpt><trkpt lat="45.0212833" lon="10.6735317"><ele>21.0</ele><time>2026-04-04T13:07:11.406Z</time></trkpt><trkpt lat="45.0213983" lon="10.6735167"><ele>21.0</ele><time>2026-04-04T13:07:13.404Z</time></trkpt><trkpt lat="45.0215067" lon="10.673515"><ele>21.0</ele><time>2026-04-04T13:07:15.404Z</time></trkpt><trkpt lat="45.02157" lon="10.6735183"><ele>21.0</ele><time>2026-04-04T13:07:16.404Z</time></trkpt><trkpt lat="45.0216333" lon="10.6735233"><ele>21.0</ele><time>2026-04-04T13:07:17.403Z</time></trkpt><trkpt lat="45.0217483" lon="10.6735267"><ele>20.6</ele><time>2026-04-04T13:07:19.404Z</time></trkpt><trkpt lat="45.0218417" lon="10.6735067"><ele>20.200000000000003</ele><time>2026-04-04T13:07:21.404Z</time></trkpt><trkpt lat="45.021935" lon="10.673495"><ele>19.799999999999997</ele><time>2026-04-04T13:07:23.404Z</time></trkpt><trkpt lat="45.022035" lon="10.673465"><ele>19.4</ele><time>2026-04-04T13:07:25.404Z</time></trkpt><trkpt lat="45.0221333" lon="10.6734783"><ele>19.0</ele><time>2026-04-04T13:07:27.404Z</time></trkpt><trkpt lat="45.0222467" lon="10.6735"><ele>19.0</ele><time>2026-04-04T13:07:29.404Z</time></trkpt><trkpt lat="45.02237" lon="10.6735017"><ele>19.0</ele><time>2026-04-04T13:07:31.407Z</time></trkpt><trkpt lat="45.0224967" lon="10.6735117"><ele>19.0</ele><time>2026-04-04T13:07:33.407Z</time></trkpt><trkpt lat="45.0226117" lon="10.67351"><ele>19.0</ele><time>2026-04-04T13:07:35.406Z</time></trkpt><trkpt lat="45.02271" lon="10.6735"><ele>19.2</ele><time>2026-04-04T13:07:37.407Z</time></trkpt><trkpt lat="45.022805" lon="10.6735083"><ele>19.4</ele><time>2026-04-04T13:07:39.404Z</time></trkpt><trkpt lat="45.0229083" lon="10.6734767"><ele>19.6</ele><time>2026-04-04T13:07:41.404Z</time></trkpt><trkpt lat="45.0230333" lon="10.6734433"><ele>19.8</ele><time>2026-04-04T13:07:43.404Z</time></trkpt><trkpt lat="45.0231" lon="10.6734367"><ele>20.0</ele><time>2026-04-04T13:07:44.403Z</time></trkpt><trkpt lat="45.0232033" lon="10.673425"><ele>20.0</ele><time>2026-04-04T13:07:46.404Z</time></trkpt><trkpt lat="45.0233117" lon="10.673465"><ele>20.0</ele><time>2026-04-04T13:07:48.404Z</time></trkpt><trkpt lat="45.0233783" lon="10.6734967"><ele>20.0</ele><time>2026-04-04T13:07:49.404Z</time></trkpt><trkpt lat="45.0234617" lon="10.67352"><ele>20.0</ele><time>2026-04-04T13:07:50.406Z</time></trkpt><trkpt lat="45.0235383" lon="10.6735283"><ele>20.0</ele><time>2026-04-04T13:07:51.404Z</time></trkpt><trkpt lat="45.0236133" lon="10.6735183"><ele>20.0</ele><time>2026-04-04T13:07:52.403Z</time></trkpt><trkpt lat="45.0236867" lon="10.673495"><ele>20.0</ele><time>2026-04-04T13:07:53.403Z</time></trkpt><trkpt lat="45.023765" lon="10.673465"><ele>20.0</ele><time>2026-04-04T13:07:54.403Z</time></trkpt><trkpt lat="45.0238467" lon="10.6734267"><ele>20.0</ele><time>2026-04-04T13:07:55.404Z</time></trkpt><trkpt lat="45.0239283" lon="10.6733883"><ele>20.0</ele><time>2026-04-04T13:07:56.402Z</time></trkpt><trkpt lat="45.0240033" lon="10.673355"><ele>20.0</ele><time>2026-04-04T13:07:57.404Z</time></trkpt><trkpt lat="45.024065" lon="10.673325"><ele>20.0</ele><time>2026-04-04T13:07:58.404Z</time></trkpt><trkpt lat="45.02416" lon="10.6732467"><ele>19.8</ele><time>2026-04-04T13:08:00.405Z</time></trkpt><trkpt lat="45.02424" lon="10.6731317"><ele>19.6</ele><time>2026-04-04T13:08:02.404Z</time></trkpt><trkpt lat="45.02428" lon="10.6730617"><ele>19.4</ele><time>2026-04-04T13:08:03.404Z</time></trkpt><trkpt lat="45.0243683" lon="10.672915"><ele>19.2</ele><time>2026-04-04T13:08:05.404Z</time></trkpt><trkpt lat="45.02442" lon="10.67284"><ele>19.0</ele><time>2026-04-04T13:08:06.403Z</time></trkpt><trkpt lat="45.024475" lon="10.6727683"><ele>19.333333333333332</ele><time>2026-04-04T13:08:07.404Z</time></trkpt><trkpt lat="45.0245317" lon="10.6726967"><ele>19.666666666666664</ele><time>2026-04-04T13:08:08.403Z</time></trkpt><trkpt lat="45.0245933" lon="10.6726317"><ele>20.0</ele><time>2026-04-04T13:08:09.403Z</time></trkpt><trkpt lat="45.0246517" lon="10.6725717"><ele>20.333333333333332</ele><time>2026-04-04T13:08:10.405Z</time></trkpt><trkpt lat="45.02472" lon="10.6725133"><ele>20.666666666666668</ele><time>2026-04-04T13:08:11.404Z</time></trkpt><trkpt lat="45.02479" lon="10.67246"><ele>21.0</ele><time>2026-04-04T13:08:12.403Z</time></trkpt><trkpt lat="45.0248667" lon="10.67241"><ele>21.0</ele><time>2026-04-04T13:08:13.404Z</time></trkpt><trkpt lat="45.0249467" lon="10.6723567"><ele>21.0</ele><time>2026-04-04T13:08:14.404Z</time></trkpt><trkpt lat="45.0250267" lon="10.6723033"><ele>21.0</ele><time>2026-04-04T13:08:15.404Z</time></trkpt><trkpt lat="45.0251017" lon="10.6722583"><ele>21.0</ele><time>2026-04-04T13:08:16.404Z</time></trkpt><trkpt lat="45.0251833" lon="10.6722167"><ele>21.0</ele><time>2026-04-04T13:08:17.404Z</time></trkpt><trkpt lat="45.025265" lon="10.6721783"><ele>21.0</ele><time>2026-04-04T13:08:18.405Z</time></trkpt><trkpt lat="45.0253517" lon="10.6721417"><ele>20.666666666666668</ele><time>2026-04-04T13:08:19.406Z</time></trkpt><trkpt lat="45.0254333" lon="10.6721083"><ele>20.333333333333332</ele><time>2026-04-04T13:08:20.405Z</time></trkpt><trkpt lat="45.0255117" lon="10.6720767"><ele>20.0</ele><time>2026-04-04T13:08:21.407Z</time></trkpt><trkpt lat="45.0255917" lon="10.6720517"><ele>19.666666666666664</ele><time>2026-04-04T13:08:22.405Z</time></trkpt><trkpt lat="45.025675" lon="10.6720317"><ele>19.333333333333332</ele><time>2026-04-04T13:08:23.403Z</time></trkpt><trkpt lat="45.0257617" lon="10.6720267"><ele>19.0</ele><time>2026-04-04T13:08:24.405Z</time></trkpt><trkpt lat="45.0258467" lon="10.6720333"><ele>18.833333333333332</ele><time>2026-04-04T13:08:25.405Z</time></trkpt><trkpt lat="45.0259317" lon="10.6720533"><ele>18.666666666666664</ele><time>2026-04-04T13:08:26.405Z</time></trkpt><trkpt lat="45.0260183" lon="10.67208"><ele>18.5</ele><time>2026-04-04T13:08:27.406Z</time></trkpt><trkpt lat="45.026095" lon="10.6721133"><ele>18.333333333333332</ele><time>2026-04-04T13:08:28.404Z</time></trkpt><trkpt lat="45.026175" lon="10.6721533"><ele>18.166666666666668</ele><time>2026-04-04T13:08:29.404Z</time></trkpt><trkpt lat="45.02626" lon="10.6721917"><ele>18.0</ele><time>2026-04-04T13:08:30.405Z</time></trkpt><trkpt lat="45.0263467" lon="10.6722267"><ele>18.0</ele><time>2026-04-04T13:08:31.407Z</time></trkpt><trkpt lat="45.0264217" lon="10.6722517"><ele>18.0</ele><time>2026-04-04T13:08:32.404Z</time></trkpt><trkpt lat="45.0265117" lon="10.6722567"><ele>18.0</ele><time>2026-04-04T13:08:33.405Z</time></trkpt><trkpt lat="45.0265983" lon="10.672245"><ele>18.0</ele><time>2026-04-04T13:08:34.404Z</time></trkpt><trkpt lat="45.0266767" lon="10.6722133"><ele>18.0</ele><time>2026-04-04T13:08:35.404Z</time></trkpt><trkpt lat="45.0267567" lon="10.67216"><ele>18.0</ele><time>2026-04-04T13:08:36.404Z</time></trkpt><trkpt lat="45.0268333" lon="10.6720967"><ele>18.2</ele><time>2026-04-04T13:08:37.404Z</time></trkpt><trkpt lat="45.0269033" lon="10.672015"><ele>18.4</ele><time>2026-04-04T13:08:38.403Z</time></trkpt><trkpt lat="45.02698" lon="10.6719283"><ele>18.599999999999998</ele><time>2026-04-04T13:08:39.404Z</time></trkpt><trkpt lat="45.0270617" lon="10.6718467"><ele>18.8</ele><time>2026-04-04T13:08:40.403Z</time></trkpt><trkpt lat="45.0271433" lon="10.6717683"><ele>19.0</ele><time>2026-04-04T13:08:41.405Z</time></trkpt><trkpt lat="45.027225" lon="10.671695"><ele>19.0</ele><time>2026-04-04T13:08:42.407Z</time></trkpt><trkpt lat="45.027315" lon="10.6716283"><ele>19.0</ele><time>2026-04-04T13:08:43.404Z</time></trkpt><trkpt lat="45.02741" lon="10.67156"><ele>19.0</ele><time>2026-04-04T13:08:44.403Z</time></trkpt><trkpt lat="45.0275" lon="10.6714933"><ele>19.0</ele><time>2026-04-04T13:08:45.404Z</time></trkpt><trkpt lat="45.02759" lon="10.671425"><ele>19.0</ele><time>2026-04-04T13:08:46.404Z</time></trkpt><trkpt lat="45.0276867" lon="10.6713583"><ele>19.0</ele><time>2026-04-04T13:08:47.405Z</time></trkpt><trkpt lat="45.0277833" lon="10.6712967"><ele>19.0</ele><time>2026-04-04T13:08:48.405Z</time></trkpt><trkpt lat="45.02788" lon="10.6712433"><ele>19.0</ele><time>2026-04-04T13:08:49.404Z</time></trkpt><trkpt lat="45.0279883" lon="10.6711983"><ele>19.0</ele><time>2026-04-04T13:08:50.404Z</time></trkpt><trkpt lat="45.0281033" lon="10.67116"><ele>19.0</ele><time>2026-04-04T13:08:51.404Z</time></trkpt><trkpt lat="45.02821" lon="10.6711217"><ele>19.2</ele><time>2026-04-04T13:08:52.403Z</time></trkpt><trkpt lat="45.0283167" lon="10.6710917"><ele>19.4</ele><time>2026-04-04T13:08:53.405Z</time></trkpt><trkpt lat="45.0284217" lon="10.6710683"><ele>19.6</ele><time>2026-04-04T13:08:54.403Z</time></trkpt><trkpt lat="45.0285217" lon="10.671035"><ele>19.8</ele><time>2026-04-04T13:08:55.404Z</time></trkpt><trkpt lat="45.028625" lon="10.671"><ele>20.0</ele><time>2026-04-04T13:08:56.403Z</time></trkpt><trkpt lat="45.0287183" lon="10.6709617"><ele>20.0</ele><time>2026-04-04T13:08:57.406Z</time></trkpt><trkpt lat="45.028815" lon="10.6709317"><ele>20.0</ele><time>2026-04-04T13:08:58.406Z</time></trkpt><trkpt lat="45.0289033" lon="10.6709033"><ele>20.0</ele><time>2026-04-04T13:08:59.406Z</time></trkpt><trkpt lat="45.0289883" lon="10.6708783"><ele>20.0</ele><time>2026-04-04T13:09:00.406Z</time></trkpt><trkpt lat="45.029075" lon="10.6708517"><ele>20.0</ele><time>2026-04-04T13:09:01.406Z</time></trkpt><trkpt lat="45.0291567" lon="10.6708217"><ele>20.0</ele><time>2026-04-04T13:09:02.406Z</time></trkpt><trkpt lat="45.0292317" lon="10.6707917"><ele>19.833333333333336</ele><time>2026-04-04T13:09:03.407Z</time></trkpt><trkpt lat="45.0293033" lon="10.6707467"><ele>19.666666666666668</ele><time>2026-04-04T13:09:04.405Z</time></trkpt><trkpt lat="45.0293717" lon="10.670695"><ele>19.5</ele><time>2026-04-04T13:09:05.406Z</time></trkpt><trkpt lat="45.0294383" lon="10.67064"><ele>19.333333333333332</ele><time>2026-04-04T13:09:06.406Z</time></trkpt><trkpt lat="45.0295083" lon="10.6705917"><ele>19.166666666666664</ele><time>2026-04-04T13:09:07.406Z</time></trkpt><trkpt lat="45.0295883" lon="10.670555"><ele>19.0</ele><time>2026-04-04T13:09:08.406Z</time></trkpt><trkpt lat="45.029665" lon="10.6705467"><ele>19.0</ele><time>2026-04-04T13:09:09.406Z</time></trkpt><trkpt lat="45.0297383" lon="10.670545"><ele>19.0</ele><time>2026-04-04T13:09:10.406Z</time></trkpt><trkpt lat="45.0298083" lon="10.6705367"><ele>19.0</ele><time>2026-04-04T13:09:11.406Z</time></trkpt><trkpt lat="45.0298733" lon="10.6705133"><ele>19.0</ele><time>2026-04-04T13:09:12.404Z</time></trkpt><trkpt lat="45.0299333" lon="10.6704783"><ele>19.0</ele><time>2026-04-04T13:09:13.404Z</time></trkpt><trkpt lat="45.0299933" lon="10.670435"><ele>19.0</ele><time>2026-04-04T13:09:14.404Z</time></trkpt><trkpt lat="45.0300517" lon="10.6703767"><ele>19.0</ele><time>2026-04-04T13:09:15.406Z</time></trkpt><trkpt lat="45.0301083" lon="10.6703067"><ele>19.0</ele><time>2026-04-04T13:09:16.403Z</time></trkpt><trkpt lat="45.03017" lon="10.6702317"><ele>19.0</ele><time>2026-04-04T13:09:17.403Z</time></trkpt><trkpt lat="45.0302283" lon="10.67016"><ele>19.0</ele><time>2026-04-04T13:09:18.404Z</time></trkpt><trkpt lat="45.0302867" lon="10.6700867"><ele>19.0</ele><time>2026-04-04T13:09:19.404Z</time></trkpt><trkpt lat="45.0303467" lon="10.6700233"><ele>19.0</ele><time>2026-04-04T13:09:20.402Z</time></trkpt><trkpt lat="45.0304033" lon="10.669965"><ele>19.0</ele><time>2026-04-04T13:09:21.404Z</time></trkpt><trkpt lat="45.030455" lon="10.6699083"><ele>19.0</ele><time>2026-04-04T13:09:22.403Z</time></trkpt><trkpt lat="45.0305483" lon="10.6698117"><ele>19.0</ele><time>2026-04-04T13:09:24.403Z</time></trkpt><trkpt lat="45.0306233" lon="10.6697267"><ele>19.0</ele><time>2026-04-04T13:09:26.403Z</time></trkpt><trkpt lat="45.0307033" lon="10.6696433"><ele>19.0</ele><time>2026-04-04T13:09:28.405Z</time></trkpt><trkpt lat="45.03077" lon="10.6695617"><ele>19.0</ele><time>2026-04-04T13:09:30.404Z</time></trkpt><trkpt lat="45.03084" lon="10.6694817"><ele>19.0</ele><time>2026-04-04T13:09:32.403Z</time></trkpt><trkpt lat="45.0309133" lon="10.6693983"><ele>19.166666666666664</ele><time>2026-04-04T13:09:34.406Z</time></trkpt><trkpt lat="45.0309867" lon="10.6693183"><ele>19.333333333333332</ele><time>2026-04-04T13:09:36.406Z</time></trkpt><trkpt lat="45.0310583" lon="10.66924"><ele>19.5</ele><time>2026-04-04T13:09:38.406Z</time></trkpt><trkpt lat="45.0311567" lon="10.66914"><ele>19.666666666666668</ele><time>2026-04-04T13:09:40.403Z</time></trkpt><trkpt lat="45.0312117" lon="10.66908"><ele>19.833333333333336</ele><time>2026-04-04T13:09:41.405Z</time></trkpt><trkpt lat="45.0312683" lon="10.6690117"><ele>20.0</ele><time>2026-04-04T13:09:42.404Z</time></trkpt><trkpt lat="45.03133" lon="10.6689417"><ele>20.0</ele><time>2026-04-04T13:09:43.404Z</time></trkpt><trkpt lat="45.0313917" lon="10.6688733"><ele>20.0</ele><time>2026-04-04T13:09:44.404Z</time></trkpt><trkpt lat="45.0314567" lon="10.668805"><ele>20.0</ele><time>2026-04-04T13:09:45.404Z</time></trkpt><trkpt lat="45.0315283" lon="10.6687333"><ele>20.0</ele><time>2026-04-04T13:09:46.403Z</time></trkpt><trkpt lat="45.0315983" lon="10.66866"><ele>20.0</ele><time>2026-04-04T13:09:47.405Z</time></trkpt><trkpt lat="45.0316667" lon="10.66858"><ele>20.0</ele><time>2026-04-04T13:09:48.404Z</time></trkpt><trkpt lat="45.03174" lon="10.6685033"><ele>20.0</ele><time>2026-04-04T13:09:49.403Z</time></trkpt><trkpt lat="45.0318233" lon="10.6684217"><ele>20.0</ele><time>2026-04-04T13:09:50.403Z</time></trkpt><trkpt lat="45.03191" lon="10.6683317"><ele>20.0</ele><time>2026-04-04T13:09:51.405Z</time></trkpt><trkpt lat="45.0319983" lon="10.668245"><ele>20.0</ele><time>2026-04-04T13:09:52.402Z</time></trkpt><trkpt lat="45.0320883" lon="10.6681633"><ele>20.0</ele><time>2026-04-04T13:09:53.404Z</time></trkpt><trkpt lat="45.032175" lon="10.6680833"><ele>20.0</ele><time>2026-04-04T13:09:54.403Z</time></trkpt><trkpt lat="45.032265" lon="10.668005"><ele>20.0</ele><time>2026-04-04T13:09:55.404Z</time></trkpt><trkpt lat="45.0323483" lon="10.6679267"><ele>20.0</ele><time>2026-04-04T13:09:56.407Z</time></trkpt><trkpt lat="45.0324367" lon="10.6678483"><ele>20.0</ele><time>2026-04-04T13:09:57.407Z</time></trkpt><trkpt lat="45.0325267" lon="10.66777"><ele>20.0</ele><time>2026-04-04T13:09:58.404Z</time></trkpt><trkpt lat="45.0326183" lon="10.667695"><ele>20.2</ele><time>2026-04-04T13:09:59.404Z</time></trkpt><trkpt lat="45.0327133" lon="10.667625"><ele>20.4</ele><time>2026-04-04T13:10:00.404Z</time></trkpt><trkpt lat="45.032805" lon="10.667565"><ele>20.6</ele><time>2026-04-04T13:10:01.404Z</time></trkpt><trkpt lat="45.0328967" lon="10.6675067"><ele>20.8</ele><time>2026-04-04T13:10:02.404Z</time></trkpt><trkpt lat="45.03299" lon="10.667445"><ele>21.0</ele><time>2026-04-04T13:10:03.407Z</time></trkpt><trkpt lat="45.0330833" lon="10.66738"><ele>21.0</ele><time>2026-04-04T13:10:04.403Z</time></trkpt><trkpt lat="45.033185" lon="10.6673133"><ele>21.0</ele><time>2026-04-04T13:10:05.405Z</time></trkpt><trkpt lat="45.0332917" lon="10.6672417"><ele>21.0</ele><time>2026-04-04T13:10:06.404Z</time></trkpt><trkpt lat="45.0333883" lon="10.667175"><ele>21.0</ele><time>2026-04-04T13:10:07.404Z</time></trkpt><trkpt lat="45.0334817" lon="10.6671083"><ele>21.0</ele><time>2026-04-04T13:10:08.405Z</time></trkpt><trkpt lat="45.0335717" lon="10.66704"><ele>21.200000000000003</ele><time>2026-04-04T13:10:09.407Z</time></trkpt><trkpt lat="45.0336617" lon="10.66697"><ele>21.400000000000002</ele><time>2026-04-04T13:10:10.406Z</time></trkpt><trkpt lat="45.03376" lon="10.6669017"><ele>21.6</ele><time>2026-04-04T13:10:11.404Z</time></trkpt><trkpt lat="45.0338567" lon="10.6668333"><ele>21.8</ele><time>2026-04-04T13:10:12.404Z</time></trkpt><trkpt lat="45.03395" lon="10.6667667"><ele>22.0</ele><time>2026-04-04T13:10:13.404Z</time></trkpt><trkpt lat="45.0340433" lon="10.6667067"><ele>22.0</ele><time>2026-04-04T13:10:14.404Z</time></trkpt><trkpt lat="45.03413" lon="10.6666517"><ele>22.0</ele><time>2026-04-04T13:10:15.404Z</time></trkpt><trkpt lat="45.0342183" lon="10.6666"><ele>22.0</ele><time>2026-04-04T13:10:16.404Z</time></trkpt><trkpt lat="45.0343067" lon="10.6665483"><ele>22.0</ele><time>2026-04-04T13:10:17.404Z</time></trkpt><trkpt lat="45.0344017" lon="10.6664983"><ele>22.0</ele><time>2026-04-04T13:10:18.404Z</time></trkpt><trkpt lat="45.0344983" lon="10.6664533"><ele>21.0</ele><time>2026-04-04T13:10:19.404Z</time></trkpt><trkpt lat="45.034595" lon="10.6664183"><ele>20.0</ele><time>2026-04-04T13:10:20.403Z</time></trkpt><trkpt lat="45.0346967" lon="10.6663833"><ele>19.0</ele><time>2026-04-04T13:10:21.405Z</time></trkpt><trkpt lat="45.034795" lon="10.66635"><ele>18.0</ele><time>2026-04-04T13:10:22.404Z</time></trkpt><trkpt lat="45.0348867" lon="10.6663167"><ele>17.0</ele><time>2026-04-04T13:10:23.405Z</time></trkpt><trkpt lat="45.034975" lon="10.6662883"><ele>17.0</ele><time>2026-04-04T13:10:24.404Z</time></trkpt><trkpt lat="45.0350617" lon="10.66627"><ele>17.0</ele><time>2026-04-04T13:10:25.403Z</time></trkpt><trkpt lat="45.0351483" lon="10.66625"><ele>17.0</ele><time>2026-04-04T13:10:26.403Z</time></trkpt><trkpt lat="45.0352333" lon="10.666225"><ele>17.0</ele><time>2026-04-04T13:10:27.405Z</time></trkpt><trkpt lat="45.03532" lon="10.66619"><ele>17.0</ele><time>2026-04-04T13:10:28.404Z</time></trkpt><trkpt lat="45.0354117" lon="10.66615"><ele>17.0</ele><time>2026-04-04T13:10:29.405Z</time></trkpt><trkpt lat="45.035505" lon="10.66611"><ele>18.333333333333336</ele><time>2026-04-04T13:10:30.404Z</time></trkpt><trkpt lat="45.0355967" lon="10.6660733"><ele>19.666666666666668</ele><time>2026-04-04T13:10:31.405Z</time></trkpt><trkpt lat="45.0356817" lon="10.66604"><ele>21.0</ele><time>2026-04-04T13:10:32.405Z</time></trkpt><trkpt lat="45.0357583" lon="10.6660117"><ele>22.333333333333336</ele><time>2026-04-04T13:10:33.408Z</time></trkpt><trkpt lat="45.0358267" lon="10.6659833"><ele>23.666666666666668</ele><time>2026-04-04T13:10:34.407Z</time></trkpt><trkpt lat="45.0359233" lon="10.6659333"><ele>25.0</ele><time>2026-04-04T13:10:36.404Z</time></trkpt><trkpt lat="45.0359567" lon="10.6658367"><ele>25.000000000000004</ele><time>2026-04-04T13:10:38.404Z</time></trkpt><trkpt lat="45.035915" lon="10.6656917"><ele>25.0</ele><time>2026-04-04T13:10:40.404Z</time></trkpt><trkpt lat="45.0358767" lon="10.6655983"><ele>25.0</ele><time>2026-04-04T13:10:41.407Z</time></trkpt><trkpt lat="45.0358367" lon="10.665505"><ele>25.0</ele><time>2026-04-04T13:10:42.407Z</time></trkpt><trkpt lat="45.0357983" lon="10.6654167"><ele>25.000000000000004</ele><time>2026-04-04T13:10:43.407Z</time></trkpt><trkpt lat="45.03576" lon="10.6653333"><ele>25.0</ele><time>2026-04-04T13:10:44.406Z</time></trkpt><trkpt lat="45.0356967" lon="10.665185"><ele>25.333333333333336</ele><time>2026-04-04T13:10:46.404Z</time></trkpt><trkpt lat="45.0356733" lon="10.6650283"><ele>25.666666666666668</ele><time>2026-04-04T13:10:48.404Z</time></trkpt><trkpt lat="45.035705" lon="10.66486"><ele>26.0</ele><time>2026-04-04T13:10:50.406Z</time></trkpt><trkpt lat="45.03573" lon="10.6647717"><ele>26.333333333333336</ele><time>2026-04-04T13:10:51.407Z</time></trkpt><trkpt lat="45.0357567" lon="10.664685"><ele>26.666666666666668</ele><time>2026-04-04T13:10:52.406Z</time></trkpt><trkpt lat="45.0357833" lon="10.664595"><ele>27.0</ele><time>2026-04-04T13:10:53.406Z</time></trkpt><trkpt lat="45.03581" lon="10.6644983"><ele>26.666666666666668</ele><time>2026-04-04T13:10:54.407Z</time></trkpt><trkpt lat="45.0358383" lon="10.6644033"><ele>26.333333333333336</ele><time>2026-04-04T13:10:55.407Z</time></trkpt><trkpt lat="45.0358683" lon="10.664305"><ele>26.0</ele><time>2026-04-04T13:10:56.408Z</time></trkpt><trkpt lat="45.0359033" lon="10.6641983"><ele>25.666666666666668</ele><time>2026-04-04T13:10:57.407Z</time></trkpt><trkpt lat="45.0359417" lon="10.664095"><ele>25.333333333333336</ele><time>2026-04-04T13:10:58.407Z</time></trkpt><trkpt lat="45.03598" lon="10.6639817"><ele>25.0</ele><time>2026-04-04T13:10:59.407Z</time></trkpt><trkpt lat="45.0360217" lon="10.6638633"><ele>25.0</ele><time>2026-04-04T13:11:00.407Z</time></trkpt><trkpt lat="45.036065" lon="10.663745"><ele>25.0</ele><time>2026-04-04T13:11:01.406Z</time></trkpt><trkpt lat="45.0361067" lon="10.6636233"><ele>25.0</ele><time>2026-04-04T13:11:02.407Z</time></trkpt><trkpt lat="45.0361517" lon="10.6635033"><ele>25.0</ele><time>2026-04-04T13:11:03.407Z</time></trkpt><trkpt lat="45.0362017" lon="10.6633833"><ele>25.0</ele><time>2026-04-04T13:11:04.405Z</time></trkpt><trkpt lat="45.0362533" lon="10.663265"><ele>25.2</ele><time>2026-04-04T13:11:05.405Z</time></trkpt><trkpt lat="45.036305" lon="10.6631433"><ele>25.4</ele><time>2026-04-04T13:11:06.407Z</time></trkpt><trkpt lat="45.03636" lon="10.6630217"><ele>25.6</ele><time>2026-04-04T13:11:07.406Z</time></trkpt><trkpt lat="45.0364117" lon="10.6629067"><ele>25.8</ele><time>2026-04-04T13:11:08.407Z</time></trkpt><trkpt lat="45.0364633" lon="10.6628"><ele>26.0</ele><time>2026-04-04T13:11:09.406Z</time></trkpt><trkpt lat="45.036515" lon="10.66271"><ele>25.999999999999996</ele><time>2026-04-04T13:11:10.405Z</time></trkpt><trkpt lat="45.036565" lon="10.6626233"><ele>26.0</ele><time>2026-04-04T13:11:11.404Z</time></trkpt><trkpt lat="45.036615" lon="10.6625383"><ele>26.0</ele><time>2026-04-04T13:11:12.405Z</time></trkpt><trkpt lat="45.0366633" lon="10.6624583"><ele>26.0</ele><time>2026-04-04T13:11:13.405Z</time></trkpt><trkpt lat="45.0367" lon="10.6623767"><ele>25.999999999999996</ele><time>2026-04-04T13:11:14.405Z</time></trkpt><trkpt lat="45.0367567" lon="10.6622283"><ele>26.0</ele><time>2026-04-04T13:11:16.404Z</time></trkpt><trkpt lat="45.0368283" lon="10.6620767"><ele>25.833333333333332</ele><time>2026-04-04T13:11:18.405Z</time></trkpt><trkpt lat="45.036875" lon="10.6619867"><ele>25.666666666666664</ele><time>2026-04-04T13:11:19.404Z</time></trkpt><trkpt lat="45.0369317" lon="10.661895"><ele>25.5</ele><time>2026-04-04T13:11:20.405Z</time></trkpt><trkpt lat="45.03699" lon="10.6618033"><ele>25.333333333333336</ele><time>2026-04-04T13:11:21.404Z</time></trkpt><trkpt lat="45.03705" lon="10.6617133"><ele>25.166666666666668</ele><time>2026-04-04T13:11:22.405Z</time></trkpt><trkpt lat="45.0371117" lon="10.6616183"><ele>25.0</ele><time>2026-04-04T13:11:23.404Z</time></trkpt><trkpt lat="45.0371767" lon="10.661525"><ele>24.833333333333336</ele><time>2026-04-04T13:11:24.405Z</time></trkpt><trkpt lat="45.0372383" lon="10.6614383"><ele>24.666666666666668</ele><time>2026-04-04T13:11:25.403Z</time></trkpt><trkpt lat="45.0372917" lon="10.661355"><ele>24.5</ele><time>2026-04-04T13:11:26.405Z</time></trkpt><trkpt lat="45.0373383" lon="10.6612717"><ele>24.333333333333336</ele><time>2026-04-04T13:11:27.404Z</time></trkpt><trkpt lat="45.0373833" lon="10.6611933"><ele>24.166666666666668</ele><time>2026-04-04T13:11:28.405Z</time></trkpt><trkpt lat="45.037435" lon="10.6611233"><ele>24.0</ele><time>2026-04-04T13:11:29.403Z</time></trkpt><trkpt lat="45.0374967" lon="10.6610533"><ele>24.0</ele><time>2026-04-04T13:11:30.406Z</time></trkpt><trkpt lat="45.0375683" lon="10.66097"><ele>24.0</ele><time>2026-04-04T13:11:31.404Z</time></trkpt><trkpt lat="45.0376417" lon="10.6608833"><ele>24.0</ele><time>2026-04-04T13:11:32.404Z</time></trkpt><trkpt lat="45.0377167" lon="10.660795"><ele>24.0</ele><time>2026-04-04T13:11:33.405Z</time></trkpt><trkpt lat="45.0377933" lon="10.660705"><ele>24.0</ele><time>2026-04-04T13:11:34.405Z</time></trkpt><trkpt lat="45.0378683" lon="10.660625"><ele>24.0</ele><time>2026-04-04T13:11:35.405Z</time></trkpt><trkpt lat="45.0379433" lon="10.66055"><ele>24.0</ele><time>2026-04-04T13:11:36.405Z</time></trkpt><trkpt lat="45.03802" lon="10.660475"><ele>24.0</ele><time>2026-04-04T13:11:37.406Z</time></trkpt><trkpt lat="45.0380983" lon="10.6603983"><ele>24.0</ele><time>2026-04-04T13:11:38.405Z</time></trkpt><trkpt lat="45.03817" lon="10.6603317"><ele>24.0</ele><time>2026-04-04T13:11:39.405Z</time></trkpt><trkpt lat="45.038235" lon="10.6602717"><ele>24.0</ele><time>2026-04-04T13:11:40.405Z</time></trkpt><trkpt lat="45.03829" lon="10.6602217"><ele>23.833333333333332</ele><time>2026-04-04T13:11:41.405Z</time></trkpt><trkpt lat="45.03837" lon="10.6601283"><ele>23.666666666666668</ele><time>2026-04-04T13:11:43.403Z</time></trkpt><trkpt lat="45.038425" lon="10.66005"><ele>23.5</ele><time>2026-04-04T13:11:45.405Z</time></trkpt><trkpt lat="45.0384933" lon="10.6600117"><ele>23.333333333333336</ele><time>2026-04-04T13:11:47.404Z</time></trkpt><trkpt lat="45.0385745" lon="10.6599712"><ele>23.166666666666668</ele><time>2026-04-04T13:11:49.404Z</time></trkpt><trkpt lat="45.0386738" lon="10.6599266"><ele>23.0</ele><time>2026-04-04T13:11:51.405Z</time></trkpt><trkpt lat="45.0387855" lon="10.6598766"><ele>23.0</ele><time>2026-04-04T13:11:53.404Z</time></trkpt><trkpt lat="45.0388833" lon="10.6598167"><ele>23.0</ele><time>2026-04-04T13:11:55.404Z</time></trkpt><trkpt lat="45.0390017" lon="10.659745"><ele>23.0</ele><time>2026-04-04T13:11:57.405Z</time></trkpt><trkpt lat="45.03907" lon="10.6597083"><ele>23.0</ele><time>2026-04-04T13:11:58.405Z</time></trkpt><trkpt lat="45.0391383" lon="10.6596667"><ele>23.0</ele><time>2026-04-04T13:11:59.405Z</time></trkpt><trkpt lat="45.0391967" lon="10.6596267"><ele>23.0</ele><time>2026-04-04T13:12:00.406Z</time></trkpt><trkpt lat="45.0392833" lon="10.6595833"><ele>22.5</ele><time>2026-04-04T13:12:02.406Z</time></trkpt><trkpt lat="45.039355" lon="10.6595417"><ele>22.0</ele><time>2026-04-04T13:12:04.405Z</time></trkpt><trkpt lat="45.0394567" lon="10.6594867"><ele>21.5</ele><time>2026-04-04T13:12:06.406Z</time></trkpt><trkpt lat="45.039525" lon="10.6594517"><ele>21.0</ele><time>2026-04-04T13:12:07.405Z</time></trkpt><trkpt lat="45.0395883" lon="10.65942"><ele>20.5</ele><time>2026-04-04T13:12:08.406Z</time></trkpt><trkpt lat="45.0396567" lon="10.659385"><ele>20.0</ele><time>2026-04-04T13:12:09.406Z</time></trkpt><trkpt lat="45.0397233" lon="10.6593533"><ele>20.0</ele><time>2026-04-04T13:12:10.405Z</time></trkpt><trkpt lat="45.0397883" lon="10.6593183"><ele>20.0</ele><time>2026-04-04T13:12:11.404Z</time></trkpt><trkpt lat="45.03986" lon="10.6592817"><ele>20.0</ele><time>2026-04-04T13:12:12.405Z</time></trkpt><trkpt lat="45.0399317" lon="10.6592467"><ele>20.0</ele><time>2026-04-04T13:12:13.404Z</time></trkpt><trkpt lat="45.04001" lon="10.65921"><ele>20.0</ele><time>2026-04-04T13:12:14.405Z</time></trkpt><trkpt lat="45.0400783" lon="10.6591717"><ele>20.0</ele><time>2026-04-04T13:12:15.405Z</time></trkpt><trkpt lat="45.0401467" lon="10.6591433"><ele>20.0</ele><time>2026-04-04T13:12:16.404Z</time></trkpt><trkpt lat="45.0402117" lon="10.6591167"><ele>19.8</ele><time>2026-04-04T13:12:17.405Z</time></trkpt><trkpt lat="45.0402733" lon="10.6590917"><ele>19.6</ele><time>2026-04-04T13:12:18.405Z</time></trkpt><trkpt lat="45.0403333" lon="10.65906"><ele>19.4</ele><time>2026-04-04T13:12:19.404Z</time></trkpt><trkpt lat="45.040455" lon="10.6590183"><ele>19.2</ele><time>2026-04-04T13:12:21.405Z</time></trkpt><trkpt lat="45.0405733" lon="10.6589733"><ele>19.0</ele><time>2026-04-04T13:12:23.405Z</time></trkpt><trkpt lat="45.0406817" lon="10.6589417"><ele>19.0</ele><time>2026-04-04T13:12:25.406Z</time></trkpt><trkpt lat="45.0407617" lon="10.65892"><ele>19.0</ele><time>2026-04-04T13:12:27.406Z</time></trkpt><trkpt lat="45.0408283" lon="10.6589033"><ele>19.0</ele><time>2026-04-04T13:12:29.404Z</time></trkpt><trkpt lat="45.0408983" lon="10.6588817"><ele>19.0</ele><time>2026-04-04T13:12:31.404Z</time></trkpt><trkpt lat="45.040985" lon="10.6588717"><ele>19.0</ele><time>2026-04-04T13:12:33.405Z</time></trkpt><trkpt lat="45.0410767" lon="10.6588517"><ele>19.0</ele><time>2026-04-04T13:12:35.405Z</time></trkpt><trkpt lat="45.0411867" lon="10.6588133"><ele>19.142857142857142</ele><time>2026-04-04T13:12:37.406Z</time></trkpt><trkpt lat="45.04125" lon="10.6587983"><ele>19.28571428571429</ele><time>2026-04-04T13:12:38.407Z</time></trkpt><trkpt lat="45.0413183" lon="10.6587867"><ele>19.42857142857143</ele><time>2026-04-04T13:12:39.405Z</time></trkpt><trkpt lat="45.0413917" lon="10.6587767"><ele>19.57142857142857</ele><time>2026-04-04T13:12:40.406Z</time></trkpt><trkpt lat="45.0414667" lon="10.6587683"><ele>19.714285714285715</ele><time>2026-04-04T13:12:41.406Z</time></trkpt><trkpt lat="45.0415367" lon="10.6587567"><ele>19.857142857142858</ele><time>2026-04-04T13:12:42.406Z</time></trkpt><trkpt lat="45.04161" lon="10.6587467"><ele>20.0</ele><time>2026-04-04T13:12:43.406Z</time></trkpt><trkpt lat="45.04168" lon="10.6587383"><ele>20.0</ele><time>2026-04-04T13:12:44.406Z</time></trkpt><trkpt lat="45.0417467" lon="10.6587367"><ele>20.0</ele><time>2026-04-04T13:12:45.404Z</time></trkpt><trkpt lat="45.0418167" lon="10.6587333"><ele>20.0</ele><time>2026-04-04T13:12:46.404Z</time></trkpt><trkpt lat="45.0418817" lon="10.65873"><ele>20.0</ele><time>2026-04-04T13:12:47.403Z</time></trkpt><trkpt lat="45.0419583" lon="10.65873"><ele>20.0</ele><time>2026-04-04T13:12:48.404Z</time></trkpt><trkpt lat="45.0420367" lon="10.6587283"><ele>20.0</ele><time>2026-04-04T13:12:49.403Z</time></trkpt><trkpt lat="45.0421183" lon="10.6587267"><ele>20.0</ele><time>2026-04-04T13:12:50.405Z</time></trkpt><trkpt lat="45.0422067" lon="10.6587283"><ele>20.0</ele><time>2026-04-04T13:12:51.405Z</time></trkpt><trkpt lat="45.0422933" lon="10.6587267"><ele>20.0</ele><time>2026-04-04T13:12:52.405Z</time></trkpt><trkpt lat="45.042375" lon="10.6587283"><ele>20.0</ele><time>2026-04-04T13:12:53.405Z</time></trkpt><trkpt lat="45.0424583" lon="10.6587283"><ele>20.0</ele><time>2026-04-04T13:12:54.406Z</time></trkpt><trkpt lat="45.042545" lon="10.6587317"><ele>20.0</ele><time>2026-04-04T13:12:55.405Z</time></trkpt><trkpt lat="45.04263" lon="10.65874"><ele>20.0</ele><time>2026-04-04T13:12:56.406Z</time></trkpt><trkpt lat="45.0427167" lon="10.65875"><ele>19.833333333333336</ele><time>2026-04-04T13:12:57.406Z</time></trkpt><trkpt lat="45.0428033" lon="10.6587617"><ele>19.666666666666668</ele><time>2026-04-04T13:12:58.405Z</time></trkpt><trkpt lat="45.042895" lon="10.6587733"><ele>19.5</ele><time>2026-04-04T13:12:59.404Z</time></trkpt><trkpt lat="45.0429933" lon="10.65878"><ele>19.333333333333332</ele><time>2026-04-04T13:13:00.405Z</time></trkpt><trkpt lat="45.0430817" lon="10.65879"><ele>19.166666666666664</ele><time>2026-04-04T13:13:01.405Z</time></trkpt><trkpt lat="45.04316" lon="10.6587967"><ele>19.0</ele><time>2026-04-04T13:13:02.406Z</time></trkpt><trkpt lat="45.04324" lon="10.6587967"><ele>18.833333333333332</ele><time>2026-04-04T13:13:03.406Z</time></trkpt><trkpt lat="45.043315" lon="10.6587967"><ele>18.666666666666664</ele><time>2026-04-04T13:13:04.405Z</time></trkpt><trkpt lat="45.0433867" lon="10.6588033"><ele>18.5</ele><time>2026-04-04T13:13:05.405Z</time></trkpt><trkpt lat="45.0434517" lon="10.658815"><ele>18.333333333333332</ele><time>2026-04-04T13:13:06.406Z</time></trkpt><trkpt lat="45.0435617" lon="10.6588383"><ele>18.166666666666668</ele><time>2026-04-04T13:13:08.403Z</time></trkpt><trkpt lat="45.0436783" lon="10.6588667"><ele>18.0</ele><time>2026-04-04T13:13:10.404Z</time></trkpt><trkpt lat="45.04377" lon="10.658815"><ele>18.0</ele><time>2026-04-04T13:13:12.406Z</time></trkpt><trkpt lat="45.0438133" lon="10.6586833"><ele>18.0</ele><time>2026-04-04T13:13:14.405Z</time></trkpt><trkpt lat="45.0438117" lon="10.6584967"><ele>18.0</ele><time>2026-04-04T13:13:16.404Z</time></trkpt><trkpt lat="45.0438017" lon="10.6583883"><ele>18.0</ele><time>2026-04-04T13:13:17.404Z</time></trkpt><trkpt lat="45.04379" lon="10.6582817"><ele>18.0</ele><time>2026-04-04T13:13:18.405Z</time></trkpt><trkpt lat="45.0437817" lon="10.6581683"><ele>18.0</ele><time>2026-04-04T13:13:19.405Z</time></trkpt><trkpt lat="45.04377" lon="10.65805"><ele>18.0</ele><time>2026-04-04T13:13:20.405Z</time></trkpt><trkpt lat="45.0437567" lon="10.6579283"><ele>18.0</ele><time>2026-04-04T13:13:21.405Z</time></trkpt><trkpt lat="45.04374" lon="10.6578017"><ele>18.0</ele><time>2026-04-04T13:13:22.404Z</time></trkpt><trkpt lat="45.0437183" lon="10.6576683"><ele>18.0</ele><time>2026-04-04T13:13:23.405Z</time></trkpt><trkpt lat="45.0436967" lon="10.6575317"><ele>18.0</ele><time>2026-04-04T13:13:24.405Z</time></trkpt><trkpt lat="45.0436683" lon="10.6573883"><ele>18.0</ele><time>2026-04-04T13:13:25.404Z</time></trkpt><trkpt lat="45.0436417" lon="10.6572383"><ele>18.0</ele><time>2026-04-04T13:13:26.405Z</time></trkpt><trkpt lat="45.0436167" lon="10.6570933"><ele>18.0</ele><time>2026-04-04T13:13:27.405Z</time></trkpt><trkpt lat="45.0435933" lon="10.6569533"><ele>18.0</ele><time>2026-04-04T13:13:28.405Z</time></trkpt><trkpt lat="45.0435717" lon="10.6568083"><ele>18.0</ele><time>2026-04-04T13:13:29.403Z</time></trkpt><trkpt lat="45.04355" lon="10.65666"><ele>18.0</ele><time>2026-04-04T13:13:30.405Z</time></trkpt><trkpt lat="45.0435267" lon="10.6565117"><ele>18.0</ele><time>2026-04-04T13:13:31.405Z</time></trkpt><trkpt lat="45.043495" lon="10.65636"><ele>18.0</ele><time>2026-04-04T13:13:32.405Z</time></trkpt><trkpt lat="45.04346" lon="10.6562117"><ele>18.0</ele><time>2026-04-04T13:13:33.405Z</time></trkpt><trkpt lat="45.043425" lon="10.6560617"><ele>18.25</ele><time>2026-04-04T13:13:34.404Z</time></trkpt><trkpt lat="45.0433867" lon="10.655905"><ele>18.5</ele><time>2026-04-04T13:13:35.404Z</time></trkpt><trkpt lat="45.043345" lon="10.655745"><ele>18.75</ele><time>2026-04-04T13:13:36.404Z</time></trkpt><trkpt lat="45.043305" lon="10.655585"><ele>19.0</ele><time>2026-04-04T13:13:37.403Z</time></trkpt><trkpt lat="45.0432633" lon="10.6554217"><ele>19.0</ele><time>2026-04-04T13:13:38.405Z</time></trkpt><trkpt lat="45.043215" lon="10.6552517"><ele>19.0</ele><time>2026-04-04T13:13:39.406Z</time></trkpt><trkpt lat="45.0431717" lon="10.6550883"><ele>19.0</ele><time>2026-04-04T13:13:40.403Z</time></trkpt><trkpt lat="45.0431217" lon="10.6549333"><ele>19.0</ele><time>2026-04-04T13:13:41.404Z</time></trkpt><trkpt lat="45.0430717" lon="10.6547917"><ele>19.0</ele><time>2026-04-04T13:13:42.405Z</time></trkpt><trkpt lat="45.0430233" lon="10.6546617"><ele>19.0</ele><time>2026-04-04T13:13:43.404Z</time></trkpt><trkpt lat="45.0429733" lon="10.6545433"><ele>19.0</ele><time>2026-04-04T13:13:44.405Z</time></trkpt><trkpt lat="45.0429183" lon="10.6544267"><ele>19.0</ele><time>2026-04-04T13:13:45.404Z</time></trkpt><trkpt lat="45.0428617" lon="10.6543083"><ele>19.0</ele><time>2026-04-04T13:13:46.404Z</time></trkpt><trkpt lat="45.04281" lon="10.6541833"><ele>19.2</ele><time>2026-04-04T13:13:47.404Z</time></trkpt><trkpt lat="45.0427617" lon="10.6540483"><ele>19.4</ele><time>2026-04-04T13:13:48.404Z</time></trkpt><trkpt lat="45.04271" lon="10.653915"><ele>19.6</ele><time>2026-04-04T13:13:49.404Z</time></trkpt><trkpt lat="45.0426483" lon="10.65378"><ele>19.8</ele><time>2026-04-04T13:13:50.405Z</time></trkpt><trkpt lat="45.04258" lon="10.6536483"><ele>20.0</ele><time>2026-04-04T13:13:51.405Z</time></trkpt><trkpt lat="45.0425117" lon="10.6535217"><ele>21.4</ele><time>2026-04-04T13:13:52.404Z</time></trkpt><trkpt lat="45.0424483" lon="10.6534033"><ele>22.8</ele><time>2026-04-04T13:13:53.404Z</time></trkpt><trkpt lat="45.0423833" lon="10.6532867"><ele>24.200000000000003</ele><time>2026-04-04T13:13:54.404Z</time></trkpt><trkpt lat="45.0423183" lon="10.65317"><ele>25.6</ele><time>2026-04-04T13:13:55.405Z</time></trkpt><trkpt lat="45.0422533" lon="10.65305"><ele>27.0</ele><time>2026-04-04T13:13:56.406Z</time></trkpt><trkpt lat="45.0421867" lon="10.6529217"><ele>27.0</ele><time>2026-04-04T13:13:57.405Z</time></trkpt><trkpt lat="45.0421167" lon="10.6527917"><ele>27.000000000000004</ele><time>2026-04-04T13:13:58.405Z</time></trkpt><trkpt lat="45.04204" lon="10.6526667"><ele>27.000000000000004</ele><time>2026-04-04T13:13:59.405Z</time></trkpt><trkpt lat="45.04196" lon="10.65255"><ele>27.0</ele><time>2026-04-04T13:14:00.406Z</time></trkpt><trkpt lat="45.0418867" lon="10.65245"><ele>27.0</ele><time>2026-04-04T13:14:01.406Z</time></trkpt><trkpt lat="45.041815" lon="10.6523567"><ele>27.0</ele><time>2026-04-04T13:14:02.406Z</time></trkpt><trkpt lat="45.0417467" lon="10.6522667"><ele>27.0</ele><time>2026-04-04T13:14:03.405Z</time></trkpt><trkpt lat="45.0416833" lon="10.6521817"><ele>27.0</ele><time>2026-04-04T13:14:04.405Z</time></trkpt><trkpt lat="45.0416217" lon="10.652105"><ele>27.0</ele><time>2026-04-04T13:14:05.405Z</time></trkpt><trkpt lat="45.041565" lon="10.65204"><ele>27.0</ele><time>2026-04-04T13:14:06.406Z</time></trkpt><trkpt lat="45.0415" lon="10.6519833"><ele>27.0</ele><time>2026-04-04T13:14:07.405Z</time></trkpt><trkpt lat="45.0414417" lon="10.6519283"><ele>26.0</ele><time>2026-04-04T13:14:08.406Z</time></trkpt><trkpt lat="45.0413833" lon="10.6518683"><ele>25.000000000000004</ele><time>2026-04-04T13:14:09.406Z</time></trkpt><trkpt lat="45.0413333" lon="10.6518083"><ele>24.0</ele><time>2026-04-04T13:14:10.405Z</time></trkpt><trkpt lat="45.04125" lon="10.6516983"><ele>23.0</ele><time>2026-04-04T13:14:12.406Z</time></trkpt><trkpt lat="45.041165" lon="10.651605"><ele>22.0</ele><time>2026-04-04T13:14:14.406Z</time></trkpt><trkpt lat="45.0410617" lon="10.6515433"><ele>22.0</ele><time>2026-04-04T13:14:16.406Z</time></trkpt><trkpt lat="45.0409417" lon="10.6514917"><ele>22.0</ele><time>2026-04-04T13:14:18.405Z</time></trkpt><trkpt lat="45.04088" lon="10.651465"><ele>22.0</ele><time>2026-04-04T13:14:19.404Z</time></trkpt><trkpt lat="45.0408167" lon="10.6514417"><ele>22.0</ele><time>2026-04-04T13:14:20.404Z</time></trkpt><trkpt lat="45.040695" lon="10.6514067"><ele>22.0</ele><time>2026-04-04T13:14:22.403Z</time></trkpt><trkpt lat="45.0405867" lon="10.65143"><ele>22.400000000000002</ele><time>2026-04-04T13:14:24.405Z</time></trkpt><trkpt lat="45.0405017" lon="10.6515"><ele>22.8</ele><time>2026-04-04T13:14:26.405Z</time></trkpt><trkpt lat="45.0404267" lon="10.6515083"><ele>23.2</ele><time>2026-04-04T13:14:28.406Z</time></trkpt><trkpt lat="45.0404133" lon="10.6514067"><ele>23.6</ele><time>2026-04-04T13:14:30.405Z</time></trkpt><trkpt lat="45.0404767" lon="10.6512917"><ele>24.0</ele><time>2026-04-04T13:14:32.404Z</time></trkpt><trkpt lat="45.0405533" lon="10.651175"><ele>23.2</ele><time>2026-04-04T13:14:34.406Z</time></trkpt><trkpt lat="45.04063" lon="10.6510383"><ele>22.4</ele><time>2026-04-04T13:14:36.406Z</time></trkpt><trkpt lat="45.0406683" lon="10.6509517"><ele>21.6</ele><time>2026-04-04T13:14:37.406Z</time></trkpt><trkpt lat="45.040705" lon="10.65087"><ele>20.8</ele><time>2026-04-04T13:14:38.406Z</time></trkpt><trkpt lat="45.0407717" lon="10.6507283"><ele>20.0</ele><time>2026-04-04T13:14:40.405Z</time></trkpt><trkpt lat="45.0408383" lon="10.6505983"><ele>19.6</ele><time>2026-04-04T13:14:42.404Z</time></trkpt><trkpt lat="45.0409033" lon="10.6504717"><ele>19.2</ele><time>2026-04-04T13:14:44.404Z</time></trkpt><trkpt lat="45.04096" lon="10.65034"><ele>18.8</ele><time>2026-04-04T13:14:46.405Z</time></trkpt><trkpt lat="45.041015" lon="10.6502267"><ele>18.4</ele><time>2026-04-04T13:14:48.404Z</time></trkpt><trkpt lat="45.04108" lon="10.650095"><ele>18.0</ele><time>2026-04-04T13:14:50.404Z</time></trkpt><trkpt lat="45.041155" lon="10.649955"><ele>18.0</ele><time>2026-04-04T13:14:52.405Z</time></trkpt><trkpt lat="45.0412267" lon="10.6498233"><ele>18.0</ele><time>2026-04-04T13:14:54.405Z</time></trkpt><trkpt lat="45.041305" lon="10.6497767"><ele>18.0</ele><time>2026-04-04T13:14:56.404Z</time></trkpt><trkpt lat="45.0413633" lon="10.649855"><ele>18.0</ele><time>2026-04-04T13:14:58.404Z</time></trkpt><trkpt lat="45.0414033" lon="10.6499583"><ele>18.0</ele><time>2026-04-04T13:15:00.405Z</time></trkpt><trkpt lat="45.0414217" lon="10.650075"><ele>18.0</ele><time>2026-04-04T13:15:02.405Z</time></trkpt><trkpt lat="45.041395" lon="10.65016"><ele>18.0</ele><time>2026-04-04T13:15:04.406Z</time></trkpt></trkseg></trk></gpx>